<?xml version="1.0" encoding="UTF-8" standalone="no" ?>
<gpx xmlns="http://www.topografix.com/GPX/1/1" xmlns:xsi="http://www.w3.org/2001/XMLSchema-instance" xsi:schemaLocation="http://www.topografix.com/GPX/1/1 http://www.topografix.com/GPX/1/1/gpx.xsd" version="1.1" creator="VisuGPX - https://www.visugpx.com">
  <metadata>
    <name>Randonnées Biertoises : plateau de Guirel et col de la Crouzette</name>
    <desc><![CDATA[Randonnée près de Biert et Massat, dans le Couserans en Ariège (Pyrénées). Départ : Biert.
Riberole 
Coulat 
Guirel 
Col de la Crouzette (à 200m)
Belot 
Besset 
Coulat 
Riberole 
Biert
]]></desc>
  </metadata>
  <trk>
    <name><![CDATA[12 avr. 2021 à 11:10:10]]></name>
    <trkseg>
      <trkpt lat="42.90056" lon="1.30665">
        <ele>618</ele>
        <time>2021-04-12T09:10:10Z</time>
      </trkpt>
      <trkpt lat="42.90056" lon="1.30665">
        <ele>618</ele>
        <time>2021-04-12T09:10:11Z</time>
      </trkpt>
      <trkpt lat="42.90066" lon="1.30663">
        <ele>623</ele>
        <time>2021-04-12T09:10:46Z</time>
      </trkpt>
      <trkpt lat="42.90075" lon="1.30656">
        <ele>627</ele>
        <time>2021-04-12T09:11:11Z</time>
      </trkpt>
      <trkpt lat="42.90082" lon="1.30666">
        <ele>631</ele>
        <time>2021-04-12T09:11:41Z</time>
      </trkpt>
      <trkpt lat="42.9009" lon="1.30673">
        <ele>633</ele>
        <time>2021-04-12T09:11:54Z</time>
      </trkpt>
      <trkpt lat="42.901" lon="1.30675">
        <ele>635</ele>
        <time>2021-04-12T09:12:02Z</time>
      </trkpt>
      <trkpt lat="42.90104" lon="1.30688">
        <ele>638</ele>
        <time>2021-04-12T09:12:23Z</time>
      </trkpt>
      <trkpt lat="42.90113" lon="1.30694">
        <ele>640</ele>
        <time>2021-04-12T09:12:47Z</time>
      </trkpt>
      <trkpt lat="42.90123" lon="1.30691">
        <ele>642</ele>
        <time>2021-04-12T09:13:35Z</time>
      </trkpt>
      <trkpt lat="42.90127" lon="1.3068">
        <ele>645</ele>
        <time>2021-04-12T09:13:45Z</time>
      </trkpt>
      <trkpt lat="42.9013" lon="1.30664">
        <ele>648</ele>
        <time>2021-04-12T09:14:05Z</time>
      </trkpt>
      <trkpt lat="42.90147" lon="1.30649">
        <ele>655</ele>
        <time>2021-04-12T09:14:48Z</time>
      </trkpt>
      <trkpt lat="42.90154" lon="1.30639">
        <ele>659</ele>
        <time>2021-04-12T09:15:12Z</time>
      </trkpt>
      <trkpt lat="42.9016" lon="1.30625">
        <ele>662</ele>
        <time>2021-04-12T09:15:53Z</time>
      </trkpt>
      <trkpt lat="42.90152" lon="1.3061">
        <ele>665</ele>
        <time>2021-04-12T09:16:10Z</time>
      </trkpt>
      <trkpt lat="42.9015" lon="1.30577">
        <ele>670</ele>
        <time>2021-04-12T09:16:46Z</time>
      </trkpt>
      <trkpt lat="42.90155" lon="1.30562">
        <ele>672</ele>
        <time>2021-04-12T09:17:00Z</time>
      </trkpt>
      <trkpt lat="42.90163" lon="1.30539">
        <ele>676</ele>
        <time>2021-04-12T09:17:25Z</time>
      </trkpt>
      <trkpt lat="42.90166" lon="1.30536">
        <ele>678</ele>
        <time>2021-04-12T09:17:35Z</time>
      </trkpt>
      <trkpt lat="42.90167" lon="1.30528">
        <ele>679</ele>
        <time>2021-04-12T09:17:46Z</time>
      </trkpt>
      <trkpt lat="42.90171" lon="1.30524">
        <ele>681</ele>
        <time>2021-04-12T09:17:58Z</time>
      </trkpt>
      <trkpt lat="42.90177" lon="1.30524">
        <ele>682</ele>
        <time>2021-04-12T09:18:10Z</time>
      </trkpt>
      <trkpt lat="42.90186" lon="1.3052">
        <ele>683</ele>
        <time>2021-04-12T09:18:28Z</time>
      </trkpt>
      <trkpt lat="42.90195" lon="1.30519">
        <ele>685</ele>
        <time>2021-04-12T09:18:50Z</time>
      </trkpt>
      <trkpt lat="42.90203" lon="1.30509">
        <ele>688</ele>
        <time>2021-04-12T09:19:14Z</time>
      </trkpt>
      <trkpt lat="42.90211" lon="1.30499">
        <ele>692</ele>
        <time>2021-04-12T09:19:44Z</time>
      </trkpt>
      <trkpt lat="42.9022" lon="1.30495">
        <ele>695</ele>
        <time>2021-04-12T09:20:02Z</time>
      </trkpt>
      <trkpt lat="42.90228" lon="1.30485">
        <ele>698</ele>
        <time>2021-04-12T09:20:26Z</time>
      </trkpt>
      <trkpt lat="42.90247" lon="1.30481">
        <ele>702</ele>
        <time>2021-04-12T09:20:53Z</time>
      </trkpt>
      <trkpt lat="42.90254" lon="1.30477">
        <ele>706</ele>
        <time>2021-04-12T09:21:11Z</time>
      </trkpt>
      <trkpt lat="42.90258" lon="1.30472">
        <ele>706</ele>
        <time>2021-04-12T09:21:17Z</time>
      </trkpt>
      <trkpt lat="42.90266" lon="1.30466">
        <ele>708</ele>
        <time>2021-04-12T09:21:27Z</time>
      </trkpt>
      <trkpt lat="42.9027" lon="1.30462">
        <ele>708</ele>
        <time>2021-04-12T09:21:32Z</time>
      </trkpt>
      <trkpt lat="42.90274" lon="1.30459">
        <ele>709</ele>
        <time>2021-04-12T09:21:37Z</time>
      </trkpt>
      <trkpt lat="42.90278" lon="1.30463">
        <ele>711</ele>
        <time>2021-04-12T09:21:45Z</time>
      </trkpt>
      <trkpt lat="42.90283" lon="1.30458">
        <ele>711</ele>
        <time>2021-04-12T09:22:55Z</time>
      </trkpt>
      <trkpt lat="42.90279" lon="1.30459">
        <ele>710</ele>
        <time>2021-04-12T09:23:42Z</time>
      </trkpt>
      <trkpt lat="42.90278" lon="1.30465">
        <ele>711</ele>
        <time>2021-04-12T09:23:52Z</time>
      </trkpt>
      <trkpt lat="42.90276" lon="1.30472">
        <ele>712</ele>
        <time>2021-04-12T09:23:59Z</time>
      </trkpt>
      <trkpt lat="42.90277" lon="1.30479">
        <ele>713</ele>
        <time>2021-04-12T09:24:04Z</time>
      </trkpt>
      <trkpt lat="42.90285" lon="1.30475">
        <ele>715</ele>
        <time>2021-04-12T09:25:05Z</time>
      </trkpt>
      <trkpt lat="42.90291" lon="1.30473">
        <ele>717</ele>
        <time>2021-04-12T09:25:14Z</time>
      </trkpt>
      <trkpt lat="42.90296" lon="1.30473">
        <ele>719</ele>
        <time>2021-04-12T09:25:26Z</time>
      </trkpt>
      <trkpt lat="42.90307" lon="1.30471">
        <ele>723</ele>
        <time>2021-04-12T09:25:50Z</time>
      </trkpt>
      <trkpt lat="42.9031" lon="1.30461">
        <ele>725</ele>
        <time>2021-04-12T09:26:03Z</time>
      </trkpt>
      <trkpt lat="42.90323" lon="1.30441">
        <ele>728</ele>
        <time>2021-04-12T09:26:29Z</time>
      </trkpt>
      <trkpt lat="42.90324" lon="1.30435">
        <ele>729</ele>
        <time>2021-04-12T09:26:34Z</time>
      </trkpt>
      <trkpt lat="42.9033" lon="1.30428">
        <ele>731</ele>
        <time>2021-04-12T09:26:43Z</time>
      </trkpt>
      <trkpt lat="42.90334" lon="1.30421">
        <ele>731</ele>
        <time>2021-04-12T09:26:49Z</time>
      </trkpt>
      <trkpt lat="42.90339" lon="1.3042">
        <ele>731</ele>
        <time>2021-04-12T09:26:53Z</time>
      </trkpt>
      <trkpt lat="42.90342" lon="1.3041">
        <ele>732</ele>
        <time>2021-04-12T09:27:04Z</time>
      </trkpt>
      <trkpt lat="42.90345" lon="1.30398">
        <ele>733</ele>
        <time>2021-04-12T09:27:58Z</time>
      </trkpt>
      <trkpt lat="42.90345" lon="1.30392">
        <ele>733</ele>
        <time>2021-04-12T09:28:02Z</time>
      </trkpt>
      <trkpt lat="42.9034" lon="1.30403">
        <ele>733</ele>
        <time>2021-04-12T09:28:19Z</time>
      </trkpt>
      <trkpt lat="42.90333" lon="1.30411">
        <ele>733</ele>
        <time>2021-04-12T09:29:38Z</time>
      </trkpt>
      <trkpt lat="42.90327" lon="1.30425">
        <ele>733</ele>
        <time>2021-04-12T09:29:49Z</time>
      </trkpt>
      <trkpt lat="42.90325" lon="1.30432">
        <ele>733</ele>
        <time>2021-04-12T09:29:53Z</time>
      </trkpt>
      <trkpt lat="42.90323" lon="1.30438">
        <ele>733</ele>
        <time>2021-04-12T09:29:58Z</time>
      </trkpt>
      <trkpt lat="42.90316" lon="1.30458">
        <ele>730</ele>
        <time>2021-04-12T09:30:16Z</time>
      </trkpt>
      <trkpt lat="42.90322" lon="1.30457">
        <ele>731</ele>
        <time>2021-04-12T09:30:27Z</time>
      </trkpt>
      <trkpt lat="42.90329" lon="1.30449">
        <ele>733</ele>
        <time>2021-04-12T09:30:38Z</time>
      </trkpt>
      <trkpt lat="42.90334" lon="1.30448">
        <ele>734</ele>
        <time>2021-04-12T09:30:46Z</time>
      </trkpt>
      <trkpt lat="42.90339" lon="1.30442">
        <ele>738</ele>
        <time>2021-04-12T09:31:04Z</time>
      </trkpt>
      <trkpt lat="42.90341" lon="1.30447">
        <ele>739</ele>
        <time>2021-04-12T09:31:14Z</time>
      </trkpt>
      <trkpt lat="42.90367" lon="1.30437">
        <ele>746</ele>
        <time>2021-04-12T09:31:51Z</time>
      </trkpt>
      <trkpt lat="42.90379" lon="1.3043">
        <ele>748</ele>
        <time>2021-04-12T09:32:07Z</time>
      </trkpt>
      <trkpt lat="42.90382" lon="1.30426">
        <ele>749</ele>
        <time>2021-04-12T09:32:13Z</time>
      </trkpt>
      <trkpt lat="42.9039" lon="1.30423">
        <ele>751</ele>
        <time>2021-04-12T09:32:25Z</time>
      </trkpt>
      <trkpt lat="42.90397" lon="1.30421">
        <ele>753</ele>
        <time>2021-04-12T09:32:37Z</time>
      </trkpt>
      <trkpt lat="42.90404" lon="1.30423">
        <ele>755</ele>
        <time>2021-04-12T09:32:49Z</time>
      </trkpt>
      <trkpt lat="42.90408" lon="1.30421">
        <ele>756</ele>
        <time>2021-04-12T09:32:54Z</time>
      </trkpt>
      <trkpt lat="42.90421" lon="1.30423">
        <ele>759</ele>
        <time>2021-04-12T09:33:14Z</time>
      </trkpt>
      <trkpt lat="42.90437" lon="1.30421">
        <ele>763</ele>
        <time>2021-04-12T09:33:43Z</time>
      </trkpt>
      <trkpt lat="42.90448" lon="1.30417">
        <ele>765</ele>
        <time>2021-04-12T09:33:56Z</time>
      </trkpt>
      <trkpt lat="42.90461" lon="1.30418">
        <ele>767</ele>
        <time>2021-04-12T09:34:15Z</time>
      </trkpt>
      <trkpt lat="42.90465" lon="1.30415">
        <ele>768</ele>
        <time>2021-04-12T09:34:19Z</time>
      </trkpt>
      <trkpt lat="42.90476" lon="1.30413">
        <ele>769</ele>
        <time>2021-04-12T09:34:33Z</time>
      </trkpt>
      <trkpt lat="42.9048" lon="1.30414">
        <ele>771</ele>
        <time>2021-04-12T09:34:41Z</time>
      </trkpt>
      <trkpt lat="42.90493" lon="1.30415">
        <ele>774</ele>
        <time>2021-04-12T09:34:59Z</time>
      </trkpt>
      <trkpt lat="42.90502" lon="1.30419">
        <ele>774</ele>
        <time>2021-04-12T09:35:08Z</time>
      </trkpt>
      <trkpt lat="42.90519" lon="1.3043">
        <ele>776</ele>
        <time>2021-04-12T09:35:34Z</time>
      </trkpt>
      <trkpt lat="42.90522" lon="1.30435">
        <ele>777</ele>
        <time>2021-04-12T09:35:39Z</time>
      </trkpt>
      <trkpt lat="42.90527" lon="1.30437">
        <ele>778</ele>
        <time>2021-04-12T09:35:48Z</time>
      </trkpt>
      <trkpt lat="42.90537" lon="1.30435">
        <ele>779</ele>
        <time>2021-04-12T09:35:58Z</time>
      </trkpt>
      <trkpt lat="42.90543" lon="1.30434">
        <ele>780</ele>
        <time>2021-04-12T09:36:08Z</time>
      </trkpt>
      <trkpt lat="42.90548" lon="1.3043">
        <ele>781</ele>
        <time>2021-04-12T09:36:14Z</time>
      </trkpt>
      <trkpt lat="42.90553" lon="1.30431">
        <ele>781</ele>
        <time>2021-04-12T09:36:18Z</time>
      </trkpt>
      <trkpt lat="42.90556" lon="1.30441">
        <ele>782</ele>
        <time>2021-04-12T09:36:25Z</time>
      </trkpt>
      <trkpt lat="42.90568" lon="1.30445">
        <ele>783</ele>
        <time>2021-04-12T09:36:44Z</time>
      </trkpt>
      <trkpt lat="42.90574" lon="1.30443">
        <ele>785</ele>
        <time>2021-04-12T09:36:52Z</time>
      </trkpt>
      <trkpt lat="42.90584" lon="1.30447">
        <ele>786</ele>
        <time>2021-04-12T09:37:04Z</time>
      </trkpt>
      <trkpt lat="42.90591" lon="1.30451">
        <ele>788</ele>
        <time>2021-04-12T09:37:16Z</time>
      </trkpt>
      <trkpt lat="42.90596" lon="1.30453">
        <ele>788</ele>
        <time>2021-04-12T09:37:21Z</time>
      </trkpt>
      <trkpt lat="42.90606" lon="1.30453">
        <ele>789</ele>
        <time>2021-04-12T09:37:36Z</time>
      </trkpt>
      <trkpt lat="42.90633" lon="1.30456">
        <ele>794</ele>
        <time>2021-04-12T09:38:11Z</time>
      </trkpt>
      <trkpt lat="42.90646" lon="1.30446">
        <ele>797</ele>
        <time>2021-04-12T09:38:28Z</time>
      </trkpt>
      <trkpt lat="42.90655" lon="1.30437">
        <ele>800</ele>
        <time>2021-04-12T09:38:48Z</time>
      </trkpt>
      <trkpt lat="42.90678" lon="1.30433">
        <ele>806</ele>
        <time>2021-04-12T09:39:27Z</time>
      </trkpt>
      <trkpt lat="42.90699" lon="1.3043">
        <ele>809</ele>
        <time>2021-04-12T09:39:53Z</time>
      </trkpt>
      <trkpt lat="42.90713" lon="1.30424">
        <ele>811</ele>
        <time>2021-04-12T09:40:08Z</time>
      </trkpt>
      <trkpt lat="42.90735" lon="1.30418">
        <ele>814</ele>
        <time>2021-04-12T09:40:45Z</time>
      </trkpt>
      <trkpt lat="42.90736" lon="1.30428">
        <ele>814</ele>
        <time>2021-04-12T09:42:42Z</time>
      </trkpt>
      <trkpt lat="42.90747" lon="1.30428">
        <ele>816</ele>
        <time>2021-04-12T09:43:02Z</time>
      </trkpt>
      <trkpt lat="42.90758" lon="1.30435">
        <ele>817</ele>
        <time>2021-04-12T09:43:16Z</time>
      </trkpt>
      <trkpt lat="42.90771" lon="1.30449">
        <ele>821</ele>
        <time>2021-04-12T09:43:38Z</time>
      </trkpt>
      <trkpt lat="42.90791" lon="1.30462">
        <ele>825</ele>
        <time>2021-04-12T09:44:10Z</time>
      </trkpt>
      <trkpt lat="42.9081" lon="1.30474">
        <ele>829</ele>
        <time>2021-04-12T09:44:40Z</time>
      </trkpt>
      <trkpt lat="42.90813" lon="1.30479">
        <ele>830</ele>
        <time>2021-04-12T09:44:45Z</time>
      </trkpt>
      <trkpt lat="42.90822" lon="1.30484">
        <ele>831</ele>
        <time>2021-04-12T09:44:56Z</time>
      </trkpt>
      <trkpt lat="42.90842" lon="1.30481">
        <ele>833</ele>
        <time>2021-04-12T09:45:16Z</time>
      </trkpt>
      <trkpt lat="42.90849" lon="1.30477">
        <ele>834</ele>
        <time>2021-04-12T09:45:32Z</time>
      </trkpt>
      <trkpt lat="42.90854" lon="1.30478">
        <ele>834</ele>
        <time>2021-04-12T09:45:37Z</time>
      </trkpt>
      <trkpt lat="42.9086" lon="1.30482">
        <ele>835</ele>
        <time>2021-04-12T09:45:44Z</time>
      </trkpt>
      <trkpt lat="42.90863" lon="1.30487">
        <ele>835</ele>
        <time>2021-04-12T09:45:48Z</time>
      </trkpt>
      <trkpt lat="42.90868" lon="1.30488">
        <ele>835</ele>
        <time>2021-04-12T09:45:53Z</time>
      </trkpt>
      <trkpt lat="42.90873" lon="1.30486">
        <ele>835</ele>
        <time>2021-04-12T09:45:57Z</time>
      </trkpt>
      <trkpt lat="42.90877" lon="1.30485">
        <ele>835</ele>
        <time>2021-04-12T09:46:01Z</time>
      </trkpt>
      <trkpt lat="42.90881" lon="1.30487">
        <ele>836</ele>
        <time>2021-04-12T09:46:06Z</time>
      </trkpt>
      <trkpt lat="42.90887" lon="1.30487">
        <ele>836</ele>
        <time>2021-04-12T09:46:13Z</time>
      </trkpt>
      <trkpt lat="42.90892" lon="1.3049">
        <ele>836</ele>
        <time>2021-04-12T09:46:20Z</time>
      </trkpt>
      <trkpt lat="42.90899" lon="1.30492">
        <ele>836</ele>
        <time>2021-04-12T09:46:31Z</time>
      </trkpt>
      <trkpt lat="42.9093" lon="1.30486">
        <ele>837</ele>
        <time>2021-04-12T09:46:56Z</time>
      </trkpt>
      <trkpt lat="42.90948" lon="1.3049">
        <ele>838</ele>
        <time>2021-04-12T09:47:12Z</time>
      </trkpt>
      <trkpt lat="42.90957" lon="1.30486">
        <ele>838</ele>
        <time>2021-04-12T09:47:20Z</time>
      </trkpt>
      <trkpt lat="42.90967" lon="1.30485">
        <ele>839</ele>
        <time>2021-04-12T09:47:28Z</time>
      </trkpt>
      <trkpt lat="42.90975" lon="1.30491">
        <ele>839</ele>
        <time>2021-04-12T09:47:37Z</time>
      </trkpt>
      <trkpt lat="42.90979" lon="1.30492">
        <ele>839</ele>
        <time>2021-04-12T09:47:40Z</time>
      </trkpt>
      <trkpt lat="42.90989" lon="1.30492">
        <ele>839</ele>
        <time>2021-04-12T09:47:47Z</time>
      </trkpt>
      <trkpt lat="42.90993" lon="1.30497">
        <ele>839</ele>
        <time>2021-04-12T09:47:51Z</time>
      </trkpt>
      <trkpt lat="42.91002" lon="1.30501">
        <ele>840</ele>
        <time>2021-04-12T09:47:59Z</time>
      </trkpt>
      <trkpt lat="42.91017" lon="1.30501">
        <ele>840</ele>
        <time>2021-04-12T09:48:12Z</time>
      </trkpt>
      <trkpt lat="42.91021" lon="1.30498">
        <ele>841</ele>
        <time>2021-04-12T09:48:16Z</time>
      </trkpt>
      <trkpt lat="42.91047" lon="1.30502">
        <ele>842</ele>
        <time>2021-04-12T09:48:40Z</time>
      </trkpt>
      <trkpt lat="42.91077" lon="1.30492">
        <ele>846</ele>
        <time>2021-04-12T09:49:10Z</time>
      </trkpt>
      <trkpt lat="42.91087" lon="1.30491">
        <ele>847</ele>
        <time>2021-04-12T09:49:19Z</time>
      </trkpt>
      <trkpt lat="42.91118" lon="1.305">
        <ele>851</ele>
        <time>2021-04-12T09:49:52Z</time>
      </trkpt>
      <trkpt lat="42.91146" lon="1.30494">
        <ele>858</ele>
        <time>2021-04-12T09:50:35Z</time>
      </trkpt>
      <trkpt lat="42.91156" lon="1.3049">
        <ele>860</ele>
        <time>2021-04-12T09:50:46Z</time>
      </trkpt>
      <trkpt lat="42.91169" lon="1.3049">
        <ele>862</ele>
        <time>2021-04-12T09:51:00Z</time>
      </trkpt>
      <trkpt lat="42.91178" lon="1.30494">
        <ele>864</ele>
        <time>2021-04-12T09:51:09Z</time>
      </trkpt>
      <trkpt lat="42.91187" lon="1.30495">
        <ele>866</ele>
        <time>2021-04-12T09:51:22Z</time>
      </trkpt>
      <trkpt lat="42.91201" lon="1.3051">
        <ele>869</ele>
        <time>2021-04-12T09:51:44Z</time>
      </trkpt>
      <trkpt lat="42.91214" lon="1.30549">
        <ele>874</ele>
        <time>2021-04-12T09:52:23Z</time>
      </trkpt>
      <trkpt lat="42.91226" lon="1.30561">
        <ele>876</ele>
        <time>2021-04-12T09:52:38Z</time>
      </trkpt>
      <trkpt lat="42.9123" lon="1.30564">
        <ele>876</ele>
        <time>2021-04-12T09:52:42Z</time>
      </trkpt>
      <trkpt lat="42.91235" lon="1.30564">
        <ele>877</ele>
        <time>2021-04-12T09:52:47Z</time>
      </trkpt>
      <trkpt lat="42.9124" lon="1.30563">
        <ele>877</ele>
        <time>2021-04-12T09:52:52Z</time>
      </trkpt>
      <trkpt lat="42.9125" lon="1.30564">
        <ele>879</ele>
        <time>2021-04-12T09:53:02Z</time>
      </trkpt>
      <trkpt lat="42.91255" lon="1.30568">
        <ele>880</ele>
        <time>2021-04-12T09:53:09Z</time>
      </trkpt>
      <trkpt lat="42.91261" lon="1.3057">
        <ele>881</ele>
        <time>2021-04-12T09:53:19Z</time>
      </trkpt>
      <trkpt lat="42.91266" lon="1.30566">
        <ele>882</ele>
        <time>2021-04-12T09:53:29Z</time>
      </trkpt>
      <trkpt lat="42.91277" lon="1.30572">
        <ele>883</ele>
        <time>2021-04-12T09:53:42Z</time>
      </trkpt>
      <trkpt lat="42.91297" lon="1.30569">
        <ele>887</ele>
        <time>2021-04-12T09:54:10Z</time>
      </trkpt>
      <trkpt lat="42.91316" lon="1.30556">
        <ele>890</ele>
        <time>2021-04-12T09:54:30Z</time>
      </trkpt>
      <trkpt lat="42.9132" lon="1.30551">
        <ele>890</ele>
        <time>2021-04-12T09:54:35Z</time>
      </trkpt>
      <trkpt lat="42.91354" lon="1.30519">
        <ele>895</ele>
        <time>2021-04-12T09:55:13Z</time>
      </trkpt>
      <trkpt lat="42.91362" lon="1.30511">
        <ele>896</ele>
        <time>2021-04-12T09:55:21Z</time>
      </trkpt>
      <trkpt lat="42.91376" lon="1.30494">
        <ele>898</ele>
        <time>2021-04-12T09:55:39Z</time>
      </trkpt>
      <trkpt lat="42.91384" lon="1.30488">
        <ele>899</ele>
        <time>2021-04-12T09:55:48Z</time>
      </trkpt>
      <trkpt lat="42.91399" lon="1.30469">
        <ele>900</ele>
        <time>2021-04-12T09:56:07Z</time>
      </trkpt>
      <trkpt lat="42.91412" lon="1.30459">
        <ele>900</ele>
        <time>2021-04-12T09:56:20Z</time>
      </trkpt>
      <trkpt lat="42.91417" lon="1.30453">
        <ele>900</ele>
        <time>2021-04-12T09:56:41Z</time>
      </trkpt>
      <trkpt lat="42.91431" lon="1.30447">
        <ele>901</ele>
        <time>2021-04-12T09:56:56Z</time>
      </trkpt>
      <trkpt lat="42.91441" lon="1.30441">
        <ele>903</ele>
        <time>2021-04-12T09:57:09Z</time>
      </trkpt>
      <trkpt lat="42.91462" lon="1.30432">
        <ele>907</ele>
        <time>2021-04-12T09:57:39Z</time>
      </trkpt>
      <trkpt lat="42.91466" lon="1.30428">
        <ele>908</ele>
        <time>2021-04-12T09:57:45Z</time>
      </trkpt>
      <trkpt lat="42.91467" lon="1.30422">
        <ele>908</ele>
        <time>2021-04-12T09:58:33Z</time>
      </trkpt>
      <trkpt lat="42.91471" lon="1.30418">
        <ele>908</ele>
        <time>2021-04-12T09:59:50Z</time>
      </trkpt>
      <trkpt lat="42.91471" lon="1.30426">
        <ele>908</ele>
        <time>2021-04-12T10:00:02Z</time>
      </trkpt>
      <trkpt lat="42.91471" lon="1.30428">
        <ele>908</ele>
        <time>2021-04-12T10:01:21Z</time>
      </trkpt>
      <trkpt lat="42.91478" lon="1.30432">
        <ele>908</ele>
        <time>2021-04-12T10:01:40Z</time>
      </trkpt>
      <trkpt lat="42.91487" lon="1.30441">
        <ele>909</ele>
        <time>2021-04-12T10:02:11Z</time>
      </trkpt>
      <trkpt lat="42.91493" lon="1.30446">
        <ele>910</ele>
        <time>2021-04-12T10:02:18Z</time>
      </trkpt>
      <trkpt lat="42.91498" lon="1.30445">
        <ele>911</ele>
        <time>2021-04-12T10:02:35Z</time>
      </trkpt>
      <trkpt lat="42.91504" lon="1.30446">
        <ele>912</ele>
        <time>2021-04-12T10:02:46Z</time>
      </trkpt>
      <trkpt lat="42.91509" lon="1.30444">
        <ele>912</ele>
        <time>2021-04-12T10:03:04Z</time>
      </trkpt>
      <trkpt lat="42.91524" lon="1.30462">
        <ele>915</ele>
        <time>2021-04-12T10:03:28Z</time>
      </trkpt>
      <trkpt lat="42.91534" lon="1.30464">
        <ele>916</ele>
        <time>2021-04-12T10:03:40Z</time>
      </trkpt>
      <trkpt lat="42.91547" lon="1.30467">
        <ele>918</ele>
        <time>2021-04-12T10:03:58Z</time>
      </trkpt>
      <trkpt lat="42.91552" lon="1.30466">
        <ele>919</ele>
        <time>2021-04-12T10:04:04Z</time>
      </trkpt>
      <trkpt lat="42.91573" lon="1.30472">
        <ele>923</ele>
        <time>2021-04-12T10:04:40Z</time>
      </trkpt>
      <trkpt lat="42.91585" lon="1.30481">
        <ele>926</ele>
        <time>2021-04-12T10:04:58Z</time>
      </trkpt>
      <trkpt lat="42.91607" lon="1.30487">
        <ele>932</ele>
        <time>2021-04-12T10:05:40Z</time>
      </trkpt>
      <trkpt lat="42.9163" lon="1.30498">
        <ele>937</ele>
        <time>2021-04-12T10:06:16Z</time>
      </trkpt>
      <trkpt lat="42.91634" lon="1.30504">
        <ele>940</ele>
        <time>2021-04-12T10:06:28Z</time>
      </trkpt>
      <trkpt lat="42.91653" lon="1.30517">
        <ele>945</ele>
        <time>2021-04-12T10:07:04Z</time>
      </trkpt>
      <trkpt lat="42.91662" lon="1.3052">
        <ele>947</ele>
        <time>2021-04-12T10:07:16Z</time>
      </trkpt>
      <trkpt lat="42.9167" lon="1.30526">
        <ele>948</ele>
        <time>2021-04-12T10:07:28Z</time>
      </trkpt>
      <trkpt lat="42.91684" lon="1.30532">
        <ele>951</ele>
        <time>2021-04-12T10:07:47Z</time>
      </trkpt>
      <trkpt lat="42.91692" lon="1.30531">
        <ele>952</ele>
        <time>2021-04-12T10:07:58Z</time>
      </trkpt>
      <trkpt lat="42.91699" lon="1.30538">
        <ele>954</ele>
        <time>2021-04-12T10:08:10Z</time>
      </trkpt>
      <trkpt lat="42.91717" lon="1.30544">
        <ele>955</ele>
        <time>2021-04-12T10:08:28Z</time>
      </trkpt>
      <trkpt lat="42.91721" lon="1.30548">
        <ele>955</ele>
        <time>2021-04-12T10:08:33Z</time>
      </trkpt>
      <trkpt lat="42.91725" lon="1.30551">
        <ele>955</ele>
        <time>2021-04-12T10:08:38Z</time>
      </trkpt>
      <trkpt lat="42.9173" lon="1.30551">
        <ele>956</ele>
        <time>2021-04-12T10:08:43Z</time>
      </trkpt>
      <trkpt lat="42.91759" lon="1.30566">
        <ele>959</ele>
        <time>2021-04-12T10:09:15Z</time>
      </trkpt>
      <trkpt lat="42.91787" lon="1.30578">
        <ele>962</ele>
        <time>2021-04-12T10:09:46Z</time>
      </trkpt>
      <trkpt lat="42.91798" lon="1.30581">
        <ele>964</ele>
        <time>2021-04-12T10:09:56Z</time>
      </trkpt>
      <trkpt lat="42.91804" lon="1.30581">
        <ele>964</ele>
        <time>2021-04-12T10:10:01Z</time>
      </trkpt>
      <trkpt lat="42.91826" lon="1.30588">
        <ele>967</ele>
        <time>2021-04-12T10:10:26Z</time>
      </trkpt>
      <trkpt lat="42.91829" lon="1.30594">
        <ele>968</ele>
        <time>2021-04-12T10:10:31Z</time>
      </trkpt>
      <trkpt lat="42.91834" lon="1.30596">
        <ele>969</ele>
        <time>2021-04-12T10:10:36Z</time>
      </trkpt>
      <trkpt lat="42.9184" lon="1.30597">
        <ele>970</ele>
        <time>2021-04-12T10:10:41Z</time>
      </trkpt>
      <trkpt lat="42.91844" lon="1.30593">
        <ele>970</ele>
        <time>2021-04-12T10:10:44Z</time>
      </trkpt>
      <trkpt lat="42.91849" lon="1.30596">
        <ele>970</ele>
        <time>2021-04-12T10:10:48Z</time>
      </trkpt>
      <trkpt lat="42.91853" lon="1.306">
        <ele>971</ele>
        <time>2021-04-12T10:10:53Z</time>
      </trkpt>
      <trkpt lat="42.91858" lon="1.30603">
        <ele>971</ele>
        <time>2021-04-12T10:10:58Z</time>
      </trkpt>
      <trkpt lat="42.91871" lon="1.30607">
        <ele>972</ele>
        <time>2021-04-12T10:11:11Z</time>
      </trkpt>
      <trkpt lat="42.9188" lon="1.30611">
        <ele>972</ele>
        <time>2021-04-12T10:11:20Z</time>
      </trkpt>
      <trkpt lat="42.9189" lon="1.3062">
        <ele>973</ele>
        <time>2021-04-12T10:11:30Z</time>
      </trkpt>
      <trkpt lat="42.91894" lon="1.30621">
        <ele>973</ele>
        <time>2021-04-12T10:11:34Z</time>
      </trkpt>
      <trkpt lat="42.91899" lon="1.30624">
        <ele>973</ele>
        <time>2021-04-12T10:11:38Z</time>
      </trkpt>
      <trkpt lat="42.91909" lon="1.30624">
        <ele>974</ele>
        <time>2021-04-12T10:11:48Z</time>
      </trkpt>
      <trkpt lat="42.91917" lon="1.3063">
        <ele>975</ele>
        <time>2021-04-12T10:11:57Z</time>
      </trkpt>
      <trkpt lat="42.91928" lon="1.30637">
        <ele>976</ele>
        <time>2021-04-12T10:12:12Z</time>
      </trkpt>
      <trkpt lat="42.91966" lon="1.30645">
        <ele>981</ele>
        <time>2021-04-12T10:12:59Z</time>
      </trkpt>
      <trkpt lat="42.91977" lon="1.30646">
        <ele>984</ele>
        <time>2021-04-12T10:13:17Z</time>
      </trkpt>
      <trkpt lat="42.91989" lon="1.30653">
        <ele>986</ele>
        <time>2021-04-12T10:13:35Z</time>
      </trkpt>
      <trkpt lat="42.91997" lon="1.3066">
        <ele>988</ele>
        <time>2021-04-12T10:13:46Z</time>
      </trkpt>
      <trkpt lat="42.92002" lon="1.30661">
        <ele>988</ele>
        <time>2021-04-12T10:13:51Z</time>
      </trkpt>
      <trkpt lat="42.92009" lon="1.30668">
        <ele>990</ele>
        <time>2021-04-12T10:14:02Z</time>
      </trkpt>
      <trkpt lat="42.9202" lon="1.30669">
        <ele>991</ele>
        <time>2021-04-12T10:14:14Z</time>
      </trkpt>
      <trkpt lat="42.92028" lon="1.30668">
        <ele>992</ele>
        <time>2021-04-12T10:14:24Z</time>
      </trkpt>
      <trkpt lat="42.92047" lon="1.30681">
        <ele>995</ele>
        <time>2021-04-12T10:14:51Z</time>
      </trkpt>
      <trkpt lat="42.92055" lon="1.30683">
        <ele>996</ele>
        <time>2021-04-12T10:15:03Z</time>
      </trkpt>
      <trkpt lat="42.92054" lon="1.30683">
        <ele>996</ele>
        <time>2021-04-12T10:15:41Z</time>
      </trkpt>
      <trkpt lat="42.92059" lon="1.30682">
        <ele>996</ele>
        <time>2021-04-12T10:16:35Z</time>
      </trkpt>
      <trkpt lat="42.9206" lon="1.30682">
        <ele>995</ele>
        <time>2021-04-12T10:20:53Z</time>
      </trkpt>
      <trkpt lat="42.92066" lon="1.30682">
        <ele>995</ele>
        <time>2021-04-12T10:20:58Z</time>
      </trkpt>
      <trkpt lat="42.92072" lon="1.30682">
        <ele>996</ele>
        <time>2021-04-12T10:21:12Z</time>
      </trkpt>
      <trkpt lat="42.92077" lon="1.3069">
        <ele>998</ele>
        <time>2021-04-12T10:21:27Z</time>
      </trkpt>
      <trkpt lat="42.92086" lon="1.30701">
        <ele>1000</ele>
        <time>2021-04-12T10:21:42Z</time>
      </trkpt>
      <trkpt lat="42.92093" lon="1.30703">
        <ele>1002</ele>
        <time>2021-04-12T10:21:54Z</time>
      </trkpt>
      <trkpt lat="42.92098" lon="1.30706">
        <ele>1003</ele>
        <time>2021-04-12T10:22:00Z</time>
      </trkpt>
      <trkpt lat="42.92113" lon="1.30711">
        <ele>1007</ele>
        <time>2021-04-12T10:22:29Z</time>
      </trkpt>
      <trkpt lat="42.92111" lon="1.30719">
        <ele>1009</ele>
        <time>2021-04-12T10:22:52Z</time>
      </trkpt>
      <trkpt lat="42.92104" lon="1.30728">
        <ele>1010</ele>
        <time>2021-04-12T10:23:02Z</time>
      </trkpt>
      <trkpt lat="42.92098" lon="1.30731">
        <ele>1010</ele>
        <time>2021-04-12T10:23:07Z</time>
      </trkpt>
      <trkpt lat="42.92096" lon="1.30736">
        <ele>1009</ele>
        <time>2021-04-12T10:23:15Z</time>
      </trkpt>
      <trkpt lat="42.92095" lon="1.30744">
        <ele>1009</ele>
        <time>2021-04-12T10:23:40Z</time>
      </trkpt>
      <trkpt lat="42.92089" lon="1.30755">
        <ele>1009</ele>
        <time>2021-04-12T10:23:48Z</time>
      </trkpt>
      <trkpt lat="42.92086" lon="1.30768">
        <ele>1009</ele>
        <time>2021-04-12T10:23:56Z</time>
      </trkpt>
      <trkpt lat="42.92085" lon="1.30788">
        <ele>1009</ele>
        <time>2021-04-12T10:24:09Z</time>
      </trkpt>
      <trkpt lat="42.92084" lon="1.30803">
        <ele>1011</ele>
        <time>2021-04-12T10:24:22Z</time>
      </trkpt>
      <trkpt lat="42.92085" lon="1.30817">
        <ele>1011</ele>
        <time>2021-04-12T10:24:32Z</time>
      </trkpt>
      <trkpt lat="42.92093" lon="1.30843">
        <ele>1014</ele>
        <time>2021-04-12T10:24:51Z</time>
      </trkpt>
      <trkpt lat="42.92095" lon="1.30857">
        <ele>1015</ele>
        <time>2021-04-12T10:25:04Z</time>
      </trkpt>
      <trkpt lat="42.92098" lon="1.30871">
        <ele>1017</ele>
        <time>2021-04-12T10:25:15Z</time>
      </trkpt>
      <trkpt lat="42.92103" lon="1.30886">
        <ele>1018</ele>
        <time>2021-04-12T10:25:28Z</time>
      </trkpt>
      <trkpt lat="42.92111" lon="1.30903">
        <ele>1020</ele>
        <time>2021-04-12T10:25:45Z</time>
      </trkpt>
      <trkpt lat="42.92122" lon="1.30937">
        <ele>1023</ele>
        <time>2021-04-12T10:26:10Z</time>
      </trkpt>
      <trkpt lat="42.92126" lon="1.30945">
        <ele>1024</ele>
        <time>2021-04-12T10:26:17Z</time>
      </trkpt>
      <trkpt lat="42.92132" lon="1.30963">
        <ele>1025</ele>
        <time>2021-04-12T10:26:31Z</time>
      </trkpt>
      <trkpt lat="42.92137" lon="1.30967">
        <ele>1027</ele>
        <time>2021-04-12T10:26:50Z</time>
      </trkpt>
      <trkpt lat="42.92142" lon="1.3097">
        <ele>1027</ele>
        <time>2021-04-12T10:26:56Z</time>
      </trkpt>
      <trkpt lat="42.92144" lon="1.30976">
        <ele>1027</ele>
        <time>2021-04-12T10:27:10Z</time>
      </trkpt>
      <trkpt lat="42.9215" lon="1.30978">
        <ele>1027</ele>
        <time>2021-04-12T10:27:21Z</time>
      </trkpt>
      <trkpt lat="42.92158" lon="1.30986">
        <ele>1028</ele>
        <time>2021-04-12T10:27:29Z</time>
      </trkpt>
      <trkpt lat="42.92167" lon="1.30991">
        <ele>1029</ele>
        <time>2021-04-12T10:27:38Z</time>
      </trkpt>
      <trkpt lat="42.92175" lon="1.31">
        <ele>1030</ele>
        <time>2021-04-12T10:27:46Z</time>
      </trkpt>
      <trkpt lat="42.9218" lon="1.31002">
        <ele>1030</ele>
        <time>2021-04-12T10:27:50Z</time>
      </trkpt>
      <trkpt lat="42.92189" lon="1.30998">
        <ele>1031</ele>
        <time>2021-04-12T10:27:59Z</time>
      </trkpt>
      <trkpt lat="42.92227" lon="1.31008">
        <ele>1035</ele>
        <time>2021-04-12T10:28:34Z</time>
      </trkpt>
      <trkpt lat="42.92235" lon="1.31016">
        <ele>1036</ele>
        <time>2021-04-12T10:28:42Z</time>
      </trkpt>
      <trkpt lat="42.92239" lon="1.31028">
        <ele>1037</ele>
        <time>2021-04-12T10:28:50Z</time>
      </trkpt>
      <trkpt lat="42.92251" lon="1.31025">
        <ele>1039</ele>
        <time>2021-04-12T10:29:05Z</time>
      </trkpt>
      <trkpt lat="42.92265" lon="1.31046">
        <ele>1043</ele>
        <time>2021-04-12T10:29:29Z</time>
      </trkpt>
      <trkpt lat="42.92274" lon="1.3105">
        <ele>1044</ele>
        <time>2021-04-12T10:29:38Z</time>
      </trkpt>
      <trkpt lat="42.92283" lon="1.3105">
        <ele>1045</ele>
        <time>2021-04-12T10:29:46Z</time>
      </trkpt>
      <trkpt lat="42.92292" lon="1.31047">
        <ele>1046</ele>
        <time>2021-04-12T10:29:55Z</time>
      </trkpt>
      <trkpt lat="42.92306" lon="1.31046">
        <ele>1047</ele>
        <time>2021-04-12T10:30:09Z</time>
      </trkpt>
      <trkpt lat="42.92316" lon="1.31045">
        <ele>1046</ele>
        <time>2021-04-12T10:30:17Z</time>
      </trkpt>
      <trkpt lat="42.92325" lon="1.31047">
        <ele>1046</ele>
        <time>2021-04-12T10:30:25Z</time>
      </trkpt>
      <trkpt lat="42.92354" lon="1.31043">
        <ele>1048</ele>
        <time>2021-04-12T10:30:50Z</time>
      </trkpt>
      <trkpt lat="42.92373" lon="1.31038">
        <ele>1047</ele>
        <time>2021-04-12T10:31:08Z</time>
      </trkpt>
      <trkpt lat="42.92382" lon="1.31041">
        <ele>1047</ele>
        <time>2021-04-12T10:31:17Z</time>
      </trkpt>
      <trkpt lat="42.9239" lon="1.31047">
        <ele>1047</ele>
        <time>2021-04-12T10:31:23Z</time>
      </trkpt>
      <trkpt lat="42.92397" lon="1.31054">
        <ele>1048</ele>
        <time>2021-04-12T10:31:32Z</time>
      </trkpt>
      <trkpt lat="42.92406" lon="1.3106">
        <ele>1049</ele>
        <time>2021-04-12T10:31:41Z</time>
      </trkpt>
      <trkpt lat="42.92411" lon="1.31071">
        <ele>1048</ele>
        <time>2021-04-12T10:31:49Z</time>
      </trkpt>
      <trkpt lat="42.92421" lon="1.31078">
        <ele>1047</ele>
        <time>2021-04-12T10:32:01Z</time>
      </trkpt>
      <trkpt lat="42.92429" lon="1.31088">
        <ele>1046</ele>
        <time>2021-04-12T10:32:10Z</time>
      </trkpt>
      <trkpt lat="42.92455" lon="1.31109">
        <ele>1042</ele>
        <time>2021-04-12T10:32:39Z</time>
      </trkpt>
      <trkpt lat="42.9247" lon="1.31114">
        <ele>1041</ele>
        <time>2021-04-12T10:32:53Z</time>
      </trkpt>
      <trkpt lat="42.92488" lon="1.31111">
        <ele>1041</ele>
        <time>2021-04-12T10:33:28Z</time>
      </trkpt>
      <trkpt lat="42.92492" lon="1.31106">
        <ele>1040</ele>
        <time>2021-04-12T10:33:42Z</time>
      </trkpt>
      <trkpt lat="42.92507" lon="1.3111">
        <ele>1040</ele>
        <time>2021-04-12T10:34:12Z</time>
      </trkpt>
      <trkpt lat="42.92526" lon="1.31108">
        <ele>1038</ele>
        <time>2021-04-12T10:34:32Z</time>
      </trkpt>
      <trkpt lat="42.92531" lon="1.31106">
        <ele>1038</ele>
        <time>2021-04-12T10:34:36Z</time>
      </trkpt>
      <trkpt lat="42.92538" lon="1.31107">
        <ele>1037</ele>
        <time>2021-04-12T10:34:50Z</time>
      </trkpt>
      <trkpt lat="42.92554" lon="1.31097">
        <ele>1037</ele>
        <time>2021-04-12T10:35:05Z</time>
      </trkpt>
      <trkpt lat="42.92563" lon="1.31093">
        <ele>1035</ele>
        <time>2021-04-12T10:35:14Z</time>
      </trkpt>
      <trkpt lat="42.92572" lon="1.31096">
        <ele>1035</ele>
        <time>2021-04-12T10:35:22Z</time>
      </trkpt>
      <trkpt lat="42.92583" lon="1.31111">
        <ele>1035</ele>
        <time>2021-04-12T10:35:41Z</time>
      </trkpt>
      <trkpt lat="42.92605" lon="1.31121">
        <ele>1033</ele>
        <time>2021-04-12T10:36:04Z</time>
      </trkpt>
      <trkpt lat="42.92607" lon="1.31139">
        <ele>1035</ele>
        <time>2021-04-12T10:36:23Z</time>
      </trkpt>
      <trkpt lat="42.92605" lon="1.3115">
        <ele>1036</ele>
        <time>2021-04-12T10:36:35Z</time>
      </trkpt>
      <trkpt lat="42.92611" lon="1.31203">
        <ele>1038</ele>
        <time>2021-04-12T10:37:06Z</time>
      </trkpt>
      <trkpt lat="42.92612" lon="1.31229">
        <ele>1038</ele>
        <time>2021-04-12T10:37:21Z</time>
      </trkpt>
      <trkpt lat="42.92616" lon="1.3124">
        <ele>1038</ele>
        <time>2021-04-12T10:37:28Z</time>
      </trkpt>
      <trkpt lat="42.92622" lon="1.3125">
        <ele>1038</ele>
        <time>2021-04-12T10:37:35Z</time>
      </trkpt>
      <trkpt lat="42.9264" lon="1.31259">
        <ele>1034</ele>
        <time>2021-04-12T10:37:51Z</time>
      </trkpt>
      <trkpt lat="42.92648" lon="1.31266">
        <ele>1032</ele>
        <time>2021-04-12T10:37:58Z</time>
      </trkpt>
      <trkpt lat="42.92652" lon="1.31262">
        <ele>1032</ele>
        <time>2021-04-12T10:38:03Z</time>
      </trkpt>
      <trkpt lat="42.92656" lon="1.31258">
        <ele>1032</ele>
        <time>2021-04-12T10:38:06Z</time>
      </trkpt>
      <trkpt lat="42.9266" lon="1.31254">
        <ele>1032</ele>
        <time>2021-04-12T10:38:10Z</time>
      </trkpt>
      <trkpt lat="42.92665" lon="1.31251">
        <ele>1032</ele>
        <time>2021-04-12T10:38:14Z</time>
      </trkpt>
      <trkpt lat="42.92675" lon="1.3125">
        <ele>1031</ele>
        <time>2021-04-12T10:38:21Z</time>
      </trkpt>
      <trkpt lat="42.92682" lon="1.31251">
        <ele>1032</ele>
        <time>2021-04-12T10:38:27Z</time>
      </trkpt>
      <trkpt lat="42.92692" lon="1.31249">
        <ele>1032</ele>
        <time>2021-04-12T10:38:36Z</time>
      </trkpt>
      <trkpt lat="42.92701" lon="1.31245">
        <ele>1033</ele>
        <time>2021-04-12T10:38:45Z</time>
      </trkpt>
      <trkpt lat="42.92707" lon="1.31244">
        <ele>1033</ele>
        <time>2021-04-12T10:38:49Z</time>
      </trkpt>
      <trkpt lat="42.92712" lon="1.31246">
        <ele>1032</ele>
        <time>2021-04-12T10:38:53Z</time>
      </trkpt>
      <trkpt lat="42.92731" lon="1.31249">
        <ele>1032</ele>
        <time>2021-04-12T10:39:10Z</time>
      </trkpt>
      <trkpt lat="42.92751" lon="1.3125">
        <ele>1033</ele>
        <time>2021-04-12T10:39:26Z</time>
      </trkpt>
      <trkpt lat="42.9277" lon="1.31246">
        <ele>1031</ele>
        <time>2021-04-12T10:39:43Z</time>
      </trkpt>
      <trkpt lat="42.92774" lon="1.31243">
        <ele>1030</ele>
        <time>2021-04-12T10:39:46Z</time>
      </trkpt>
      <trkpt lat="42.92788" lon="1.31221">
        <ele>1029</ele>
        <time>2021-04-12T10:40:00Z</time>
      </trkpt>
      <trkpt lat="42.92809" lon="1.31207">
        <ele>1027</ele>
        <time>2021-04-12T10:40:19Z</time>
      </trkpt>
      <trkpt lat="42.92826" lon="1.31206">
        <ele>1026</ele>
        <time>2021-04-12T10:40:36Z</time>
      </trkpt>
      <trkpt lat="42.92836" lon="1.31207">
        <ele>1025</ele>
        <time>2021-04-12T10:40:45Z</time>
      </trkpt>
      <trkpt lat="42.92844" lon="1.31205">
        <ele>1024</ele>
        <time>2021-04-12T10:40:52Z</time>
      </trkpt>
      <trkpt lat="42.92851" lon="1.31203">
        <ele>1024</ele>
        <time>2021-04-12T10:40:58Z</time>
      </trkpt>
      <trkpt lat="42.92886" lon="1.3118">
        <ele>1023</ele>
        <time>2021-04-12T10:41:29Z</time>
      </trkpt>
      <trkpt lat="42.9289" lon="1.31168">
        <ele>1023</ele>
        <time>2021-04-12T10:41:37Z</time>
      </trkpt>
      <trkpt lat="42.92905" lon="1.3115">
        <ele>1024</ele>
        <time>2021-04-12T10:41:51Z</time>
      </trkpt>
      <trkpt lat="42.92912" lon="1.31144">
        <ele>1024</ele>
        <time>2021-04-12T10:41:58Z</time>
      </trkpt>
      <trkpt lat="42.92919" lon="1.31136">
        <ele>1024</ele>
        <time>2021-04-12T10:42:07Z</time>
      </trkpt>
      <trkpt lat="42.92926" lon="1.31126">
        <ele>1026</ele>
        <time>2021-04-12T10:42:19Z</time>
      </trkpt>
      <trkpt lat="42.9295" lon="1.31144">
        <ele>1028</ele>
        <time>2021-04-12T10:42:45Z</time>
      </trkpt>
      <trkpt lat="42.92966" lon="1.31153">
        <ele>1030</ele>
        <time>2021-04-12T10:42:56Z</time>
      </trkpt>
      <trkpt lat="42.92978" lon="1.31178">
        <ele>1034</ele>
        <time>2021-04-12T10:43:25Z</time>
      </trkpt>
      <trkpt lat="42.9299" lon="1.31187">
        <ele>1036</ele>
        <time>2021-04-12T10:43:42Z</time>
      </trkpt>
      <trkpt lat="42.93001" lon="1.31192">
        <ele>1039</ele>
        <time>2021-04-12T10:43:58Z</time>
      </trkpt>
      <trkpt lat="42.93018" lon="1.31216">
        <ele>1045</ele>
        <time>2021-04-12T10:44:38Z</time>
      </trkpt>
      <trkpt lat="42.93019" lon="1.31231">
        <ele>1049</ele>
        <time>2021-04-12T10:45:02Z</time>
      </trkpt>
      <trkpt lat="42.93027" lon="1.31268">
        <ele>1059</ele>
        <time>2021-04-12T10:46:04Z</time>
      </trkpt>
      <trkpt lat="42.93031" lon="1.31287">
        <ele>1062</ele>
        <time>2021-04-12T10:46:26Z</time>
      </trkpt>
      <trkpt lat="42.93032" lon="1.31303">
        <ele>1067</ele>
        <time>2021-04-12T10:46:56Z</time>
      </trkpt>
      <trkpt lat="42.93034" lon="1.3133">
        <ele>1072</ele>
        <time>2021-04-12T10:47:32Z</time>
      </trkpt>
      <trkpt lat="42.93028" lon="1.3134">
        <ele>1075</ele>
        <time>2021-04-12T10:47:50Z</time>
      </trkpt>
      <trkpt lat="42.93024" lon="1.31353">
        <ele>1078</ele>
        <time>2021-04-12T10:48:08Z</time>
      </trkpt>
      <trkpt lat="42.93022" lon="1.31359">
        <ele>1078</ele>
        <time>2021-04-12T10:48:13Z</time>
      </trkpt>
      <trkpt lat="42.93021" lon="1.31386">
        <ele>1082</ele>
        <time>2021-04-12T10:48:45Z</time>
      </trkpt>
      <trkpt lat="42.93021" lon="1.31424">
        <ele>1089</ele>
        <time>2021-04-12T10:49:27Z</time>
      </trkpt>
      <trkpt lat="42.93024" lon="1.31437">
        <ele>1090</ele>
        <time>2021-04-12T10:49:38Z</time>
      </trkpt>
      <trkpt lat="42.93023" lon="1.31445">
        <ele>1091</ele>
        <time>2021-04-12T10:49:44Z</time>
      </trkpt>
      <trkpt lat="42.93027" lon="1.31451">
        <ele>1092</ele>
        <time>2021-04-12T10:49:49Z</time>
      </trkpt>
      <trkpt lat="42.93037" lon="1.31465">
        <ele>1094</ele>
        <time>2021-04-12T10:50:04Z</time>
      </trkpt>
      <trkpt lat="42.9304" lon="1.31471">
        <ele>1094</ele>
        <time>2021-04-12T10:50:09Z</time>
      </trkpt>
      <trkpt lat="42.93043" lon="1.31489">
        <ele>1095</ele>
        <time>2021-04-12T10:50:24Z</time>
      </trkpt>
      <trkpt lat="42.9305" lon="1.31498">
        <ele>1097</ele>
        <time>2021-04-12T10:50:36Z</time>
      </trkpt>
      <trkpt lat="42.93051" lon="1.31512">
        <ele>1099</ele>
        <time>2021-04-12T10:50:44Z</time>
      </trkpt>
      <trkpt lat="42.93054" lon="1.3152">
        <ele>1100</ele>
        <time>2021-04-12T10:50:55Z</time>
      </trkpt>
      <trkpt lat="42.93049" lon="1.31554">
        <ele>1105</ele>
        <time>2021-04-12T10:51:37Z</time>
      </trkpt>
      <trkpt lat="42.93047" lon="1.31572">
        <ele>1109</ele>
        <time>2021-04-12T10:52:01Z</time>
      </trkpt>
      <trkpt lat="42.9305" lon="1.31595">
        <ele>1113</ele>
        <time>2021-04-12T10:52:29Z</time>
      </trkpt>
      <trkpt lat="42.93046" lon="1.31605">
        <ele>1115</ele>
        <time>2021-04-12T10:52:43Z</time>
      </trkpt>
      <trkpt lat="42.93039" lon="1.31638">
        <ele>1121</ele>
        <time>2021-04-12T10:53:21Z</time>
      </trkpt>
      <trkpt lat="42.93038" lon="1.31673">
        <ele>1126</ele>
        <time>2021-04-12T10:53:57Z</time>
      </trkpt>
      <trkpt lat="42.93037" lon="1.31696">
        <ele>1130</ele>
        <time>2021-04-12T10:54:21Z</time>
      </trkpt>
      <trkpt lat="42.93038" lon="1.31706">
        <ele>1131</ele>
        <time>2021-04-12T10:54:33Z</time>
      </trkpt>
      <trkpt lat="42.9304" lon="1.31717">
        <ele>1133</ele>
        <time>2021-04-12T10:54:45Z</time>
      </trkpt>
      <trkpt lat="42.9304" lon="1.31723">
        <ele>1134</ele>
        <time>2021-04-12T10:54:50Z</time>
      </trkpt>
      <trkpt lat="42.93048" lon="1.31738">
        <ele>1136</ele>
        <time>2021-04-12T10:55:10Z</time>
      </trkpt>
      <trkpt lat="42.93053" lon="1.31745">
        <ele>1138</ele>
        <time>2021-04-12T10:55:22Z</time>
      </trkpt>
      <trkpt lat="42.93058" lon="1.31749">
        <ele>1139</ele>
        <time>2021-04-12T10:55:34Z</time>
      </trkpt>
      <trkpt lat="42.9306" lon="1.31758">
        <ele>1141</ele>
        <time>2021-04-12T10:55:46Z</time>
      </trkpt>
      <trkpt lat="42.93068" lon="1.3176">
        <ele>1144</ele>
        <time>2021-04-12T10:55:58Z</time>
      </trkpt>
      <trkpt lat="42.93067" lon="1.31766">
        <ele>1144</ele>
        <time>2021-04-12T10:56:03Z</time>
      </trkpt>
      <trkpt lat="42.93073" lon="1.31769">
        <ele>1147</ele>
        <time>2021-04-12T10:56:17Z</time>
      </trkpt>
      <trkpt lat="42.93077" lon="1.31772">
        <ele>1149</ele>
        <time>2021-04-12T10:56:29Z</time>
      </trkpt>
      <trkpt lat="42.93079" lon="1.31779">
        <ele>1151</ele>
        <time>2021-04-12T10:56:41Z</time>
      </trkpt>
      <trkpt lat="42.9308" lon="1.31787">
        <ele>1152</ele>
        <time>2021-04-12T10:56:53Z</time>
      </trkpt>
      <trkpt lat="42.93085" lon="1.3179">
        <ele>1153</ele>
        <time>2021-04-12T10:56:59Z</time>
      </trkpt>
      <trkpt lat="42.93097" lon="1.31792">
        <ele>1155</ele>
        <time>2021-04-12T10:57:15Z</time>
      </trkpt>
      <trkpt lat="42.93106" lon="1.31797">
        <ele>1158</ele>
        <time>2021-04-12T10:57:33Z</time>
      </trkpt>
      <trkpt lat="42.93119" lon="1.31806">
        <ele>1160</ele>
        <time>2021-04-12T10:58:05Z</time>
      </trkpt>
      <trkpt lat="42.93121" lon="1.31814">
        <ele>1160</ele>
        <time>2021-04-12T10:59:35Z</time>
      </trkpt>
      <trkpt lat="42.93125" lon="1.31821">
        <ele>1161</ele>
        <time>2021-04-12T10:59:39Z</time>
      </trkpt>
      <trkpt lat="42.93134" lon="1.31818">
        <ele>1160</ele>
        <time>2021-04-12T11:00:08Z</time>
      </trkpt>
      <trkpt lat="42.93136" lon="1.31835">
        <ele>1162</ele>
        <time>2021-04-12T11:00:38Z</time>
      </trkpt>
      <trkpt lat="42.93142" lon="1.31844">
        <ele>1163</ele>
        <time>2021-04-12T11:01:02Z</time>
      </trkpt>
      <trkpt lat="42.93149" lon="1.31864">
        <ele>1165</ele>
        <time>2021-04-12T11:01:28Z</time>
      </trkpt>
      <trkpt lat="42.93154" lon="1.31879">
        <ele>1167</ele>
        <time>2021-04-12T11:01:44Z</time>
      </trkpt>
      <trkpt lat="42.93156" lon="1.31892">
        <ele>1170</ele>
        <time>2021-04-12T11:01:56Z</time>
      </trkpt>
      <trkpt lat="42.93164" lon="1.319">
        <ele>1172</ele>
        <time>2021-04-12T11:02:14Z</time>
      </trkpt>
      <trkpt lat="42.93171" lon="1.31914">
        <ele>1175</ele>
        <time>2021-04-12T11:02:32Z</time>
      </trkpt>
      <trkpt lat="42.93185" lon="1.31925">
        <ele>1178</ele>
        <time>2021-04-12T11:02:54Z</time>
      </trkpt>
      <trkpt lat="42.93201" lon="1.31953">
        <ele>1182</ele>
        <time>2021-04-12T11:03:23Z</time>
      </trkpt>
      <trkpt lat="42.93206" lon="1.31987">
        <ele>1185</ele>
        <time>2021-04-12T11:03:52Z</time>
      </trkpt>
      <trkpt lat="42.93206" lon="1.31994">
        <ele>1186</ele>
        <time>2021-04-12T11:03:57Z</time>
      </trkpt>
      <trkpt lat="42.93211" lon="1.32041">
        <ele>1190</ele>
        <time>2021-04-12T11:04:36Z</time>
      </trkpt>
      <trkpt lat="42.93215" lon="1.32072">
        <ele>1196</ele>
        <time>2021-04-12T11:05:06Z</time>
      </trkpt>
      <trkpt lat="42.93216" lon="1.32085">
        <ele>1197</ele>
        <time>2021-04-12T11:05:15Z</time>
      </trkpt>
      <trkpt lat="42.93215" lon="1.32082">
        <ele>1198</ele>
        <time>2021-04-12T11:07:28Z</time>
      </trkpt>
      <trkpt lat="42.93217" lon="1.32074">
        <ele>1197</ele>
        <time>2021-04-12T11:07:36Z</time>
      </trkpt>
      <trkpt lat="42.93218" lon="1.32066">
        <ele>1196</ele>
        <time>2021-04-12T11:07:43Z</time>
      </trkpt>
      <trkpt lat="42.93213" lon="1.32054">
        <ele>1194</ele>
        <time>2021-04-12T11:07:51Z</time>
      </trkpt>
      <trkpt lat="42.93209" lon="1.32007">
        <ele>1188</ele>
        <time>2021-04-12T11:08:22Z</time>
      </trkpt>
      <trkpt lat="42.93203" lon="1.31978">
        <ele>1185</ele>
        <time>2021-04-12T11:08:41Z</time>
      </trkpt>
      <trkpt lat="42.93203" lon="1.31955">
        <ele>1182</ele>
        <time>2021-04-12T11:08:59Z</time>
      </trkpt>
      <trkpt lat="42.93195" lon="1.31937">
        <ele>1180</ele>
        <time>2021-04-12T11:09:11Z</time>
      </trkpt>
      <trkpt lat="42.93187" lon="1.31929">
        <ele>1179</ele>
        <time>2021-04-12T11:09:18Z</time>
      </trkpt>
      <trkpt lat="42.93183" lon="1.31925">
        <ele>1178</ele>
        <time>2021-04-12T11:09:22Z</time>
      </trkpt>
      <trkpt lat="42.93179" lon="1.31922">
        <ele>1178</ele>
        <time>2021-04-12T11:09:39Z</time>
      </trkpt>
      <trkpt lat="42.93177" lon="1.31916">
        <ele>1178</ele>
        <time>2021-04-12T11:10:57Z</time>
      </trkpt>
      <trkpt lat="42.9316" lon="1.31902">
        <ele>1189</ele>
        <time>2021-04-12T11:31:20Z</time>
      </trkpt>
      <trkpt lat="42.93152" lon="1.31895">
        <ele>1188</ele>
        <time>2021-04-12T11:31:23Z</time>
      </trkpt>
      <trkpt lat="42.93149" lon="1.31884">
        <ele>1185</ele>
        <time>2021-04-12T11:31:38Z</time>
      </trkpt>
      <trkpt lat="42.93134" lon="1.31848">
        <ele>1181</ele>
        <time>2021-04-12T11:31:52Z</time>
      </trkpt>
      <trkpt lat="42.93128" lon="1.31841">
        <ele>1180</ele>
        <time>2021-04-12T11:31:55Z</time>
      </trkpt>
      <trkpt lat="42.93124" lon="1.31828">
        <ele>1177</ele>
        <time>2021-04-12T11:32:43Z</time>
      </trkpt>
      <trkpt lat="42.9312" lon="1.31816">
        <ele>1176</ele>
        <time>2021-04-12T11:32:51Z</time>
      </trkpt>
      <trkpt lat="42.93104" lon="1.31803">
        <ele>1174</ele>
        <time>2021-04-12T11:33:04Z</time>
      </trkpt>
      <trkpt lat="42.93089" lon="1.31786">
        <ele>1168</ele>
        <time>2021-04-12T11:33:22Z</time>
      </trkpt>
      <trkpt lat="42.93078" lon="1.31782">
        <ele>1167</ele>
        <time>2021-04-12T11:33:27Z</time>
      </trkpt>
      <trkpt lat="42.9307" lon="1.3178">
        <ele>1165</ele>
        <time>2021-04-12T11:33:43Z</time>
      </trkpt>
      <trkpt lat="42.93065" lon="1.3177">
        <ele>1161</ele>
        <time>2021-04-12T11:33:52Z</time>
      </trkpt>
      <trkpt lat="42.93058" lon="1.31761">
        <ele>1157</ele>
        <time>2021-04-12T11:34:01Z</time>
      </trkpt>
      <trkpt lat="42.93048" lon="1.31758">
        <ele>1155</ele>
        <time>2021-04-12T11:34:06Z</time>
      </trkpt>
      <trkpt lat="42.9304" lon="1.3175">
        <ele>1152</ele>
        <time>2021-04-12T11:34:15Z</time>
      </trkpt>
      <trkpt lat="42.93032" lon="1.31726">
        <ele>1149</ele>
        <time>2021-04-12T11:34:31Z</time>
      </trkpt>
      <trkpt lat="42.93032" lon="1.31675">
        <ele>1142</ele>
        <time>2021-04-12T11:35:02Z</time>
      </trkpt>
      <trkpt lat="42.93034" lon="1.31663">
        <ele>1139</ele>
        <time>2021-04-12T11:35:10Z</time>
      </trkpt>
      <trkpt lat="42.93032" lon="1.31647">
        <ele>1136</ele>
        <time>2021-04-12T11:35:20Z</time>
      </trkpt>
      <trkpt lat="42.93038" lon="1.31593">
        <ele>1129</ele>
        <time>2021-04-12T11:35:51Z</time>
      </trkpt>
      <trkpt lat="42.93039" lon="1.31569">
        <ele>1125</ele>
        <time>2021-04-12T11:36:03Z</time>
      </trkpt>
      <trkpt lat="42.93042" lon="1.31553">
        <ele>1120</ele>
        <time>2021-04-12T11:36:19Z</time>
      </trkpt>
      <trkpt lat="42.93051" lon="1.31495">
        <ele>1112</ele>
        <time>2021-04-12T11:36:56Z</time>
      </trkpt>
      <trkpt lat="42.93037" lon="1.31477">
        <ele>1108</ele>
        <time>2021-04-12T11:37:17Z</time>
      </trkpt>
      <trkpt lat="42.93035" lon="1.31461">
        <ele>1106</ele>
        <time>2021-04-12T11:37:28Z</time>
      </trkpt>
      <trkpt lat="42.93031" lon="1.31449">
        <ele>1105</ele>
        <time>2021-04-12T11:37:37Z</time>
      </trkpt>
      <trkpt lat="42.9302" lon="1.31428">
        <ele>1102</ele>
        <time>2021-04-12T11:37:53Z</time>
      </trkpt>
      <trkpt lat="42.93018" lon="1.31415">
        <ele>1100</ele>
        <time>2021-04-12T11:38:02Z</time>
      </trkpt>
      <trkpt lat="42.93012" lon="1.31388">
        <ele>1097</ele>
        <time>2021-04-12T11:38:14Z</time>
      </trkpt>
      <trkpt lat="42.93013" lon="1.31373">
        <ele>1094</ele>
        <time>2021-04-12T11:38:23Z</time>
      </trkpt>
      <trkpt lat="42.93021" lon="1.31336">
        <ele>1088</ele>
        <time>2021-04-12T11:38:50Z</time>
      </trkpt>
      <trkpt lat="42.93016" lon="1.3129">
        <ele>1082</ele>
        <time>2021-04-12T11:39:14Z</time>
      </trkpt>
      <trkpt lat="42.93018" lon="1.31278">
        <ele>1079</ele>
        <time>2021-04-12T11:39:24Z</time>
      </trkpt>
      <trkpt lat="42.93014" lon="1.31265">
        <ele>1074</ele>
        <time>2021-04-12T11:39:42Z</time>
      </trkpt>
      <trkpt lat="42.93005" lon="1.31255">
        <ele>1071</ele>
        <time>2021-04-12T11:39:52Z</time>
      </trkpt>
      <trkpt lat="42.93005" lon="1.3123">
        <ele>1065</ele>
        <time>2021-04-12T11:40:11Z</time>
      </trkpt>
      <trkpt lat="42.92987" lon="1.31215">
        <ele>1057</ele>
        <time>2021-04-12T11:40:42Z</time>
      </trkpt>
      <trkpt lat="42.92985" lon="1.31198">
        <ele>1052</ele>
        <time>2021-04-12T11:41:04Z</time>
      </trkpt>
      <trkpt lat="42.92969" lon="1.31184">
        <ele>1048</ele>
        <time>2021-04-12T11:41:21Z</time>
      </trkpt>
      <trkpt lat="42.92964" lon="1.31165">
        <ele>1046</ele>
        <time>2021-04-12T11:41:32Z</time>
      </trkpt>
      <trkpt lat="42.92953" lon="1.31162">
        <ele>1045</ele>
        <time>2021-04-12T11:41:38Z</time>
      </trkpt>
      <trkpt lat="42.92941" lon="1.31149">
        <ele>1042</ele>
        <time>2021-04-12T11:41:51Z</time>
      </trkpt>
      <trkpt lat="42.9293" lon="1.31149">
        <ele>1042</ele>
        <time>2021-04-12T11:41:55Z</time>
      </trkpt>
      <trkpt lat="42.92924" lon="1.31129">
        <ele>1040</ele>
        <time>2021-04-12T11:42:09Z</time>
      </trkpt>
      <trkpt lat="42.92915" lon="1.31137">
        <ele>1039</ele>
        <time>2021-04-12T11:42:22Z</time>
      </trkpt>
      <trkpt lat="42.92909" lon="1.31151">
        <ele>1038</ele>
        <time>2021-04-12T11:42:29Z</time>
      </trkpt>
      <trkpt lat="42.92916" lon="1.31158">
        <ele>1036</ele>
        <time>2021-04-12T11:42:45Z</time>
      </trkpt>
      <trkpt lat="42.92921" lon="1.3117">
        <ele>1034</ele>
        <time>2021-04-12T11:43:21Z</time>
      </trkpt>
      <trkpt lat="42.92925" lon="1.31191">
        <ele>1030</ele>
        <time>2021-04-12T11:43:43Z</time>
      </trkpt>
      <trkpt lat="42.92929" lon="1.31203">
        <ele>1028</ele>
        <time>2021-04-12T11:43:52Z</time>
      </trkpt>
      <trkpt lat="42.92936" lon="1.31213">
        <ele>1028</ele>
        <time>2021-04-12T11:43:59Z</time>
      </trkpt>
      <trkpt lat="42.92939" lon="1.31225">
        <ele>1027</ele>
        <time>2021-04-12T11:44:06Z</time>
      </trkpt>
      <trkpt lat="42.9294" lon="1.31243">
        <ele>1025</ele>
        <time>2021-04-12T11:44:17Z</time>
      </trkpt>
      <trkpt lat="42.92932" lon="1.31278">
        <ele>1022</ele>
        <time>2021-04-12T11:44:40Z</time>
      </trkpt>
      <trkpt lat="42.92926" lon="1.3129">
        <ele>1020</ele>
        <time>2021-04-12T11:44:49Z</time>
      </trkpt>
      <trkpt lat="42.92923" lon="1.31302">
        <ele>1019</ele>
        <time>2021-04-12T11:44:56Z</time>
      </trkpt>
      <trkpt lat="42.92916" lon="1.31312">
        <ele>1017</ele>
        <time>2021-04-12T11:45:04Z</time>
      </trkpt>
      <trkpt lat="42.92904" lon="1.31344">
        <ele>1012</ele>
        <time>2021-04-12T11:45:29Z</time>
      </trkpt>
      <trkpt lat="42.929" lon="1.31371">
        <ele>1011</ele>
        <time>2021-04-12T11:45:42Z</time>
      </trkpt>
      <trkpt lat="42.92892" lon="1.31394">
        <ele>1009</ele>
        <time>2021-04-12T11:45:55Z</time>
      </trkpt>
      <trkpt lat="42.92884" lon="1.31413">
        <ele>1007</ele>
        <time>2021-04-12T11:46:11Z</time>
      </trkpt>
      <trkpt lat="42.92893" lon="1.31417">
        <ele>1008</ele>
        <time>2021-04-12T11:46:51Z</time>
      </trkpt>
      <trkpt lat="42.92894" lon="1.31424">
        <ele>1008</ele>
        <time>2021-04-12T11:47:10Z</time>
      </trkpt>
      <trkpt lat="42.92892" lon="1.31433">
        <ele>1008</ele>
        <time>2021-04-12T11:47:21Z</time>
      </trkpt>
      <trkpt lat="42.92891" lon="1.31439">
        <ele>1007</ele>
        <time>2021-04-12T11:47:25Z</time>
      </trkpt>
      <trkpt lat="42.92893" lon="1.31449">
        <ele>1006</ele>
        <time>2021-04-12T11:47:39Z</time>
      </trkpt>
      <trkpt lat="42.92892" lon="1.31458">
        <ele>1007</ele>
        <time>2021-04-12T11:47:51Z</time>
      </trkpt>
      <trkpt lat="42.92892" lon="1.31463">
        <ele>991.1</ele>
      </trkpt>
      <trkpt lat="42.92892" lon="1.31467">
        <ele>991.3</ele>
      </trkpt>
      <trkpt lat="42.92892" lon="1.3147">
        <ele>991.5</ele>
      </trkpt>
      <trkpt lat="42.92892" lon="1.31473">
        <ele>991.7</ele>
      </trkpt>
      <trkpt lat="42.92893" lon="1.31477">
        <ele>992.5</ele>
      </trkpt>
      <trkpt lat="42.92894" lon="1.31476">
        <ele>1005</ele>
        <time>2021-04-12T11:51:31Z</time>
      </trkpt>
      <trkpt lat="42.92893" lon="1.31485">
        <ele>1002</ele>
        <time>2021-04-12T11:51:43Z</time>
      </trkpt>
      <trkpt lat="42.92893" lon="1.31498">
        <ele>998</ele>
        <time>2021-04-12T11:51:53Z</time>
      </trkpt>
      <trkpt lat="42.92893" lon="1.31505">
        <ele>998</ele>
        <time>2021-04-12T11:52:00Z</time>
      </trkpt>
      <trkpt lat="42.92886" lon="1.31518">
        <ele>999</ele>
        <time>2021-04-12T11:53:06Z</time>
      </trkpt>
      <trkpt lat="42.92865" lon="1.31529">
        <ele>999</ele>
        <time>2021-04-12T11:53:28Z</time>
      </trkpt>
      <trkpt lat="42.92861" lon="1.31542">
        <ele>999</ele>
        <time>2021-04-12T11:53:48Z</time>
      </trkpt>
      <trkpt lat="42.92853" lon="1.31554">
        <ele>999</ele>
        <time>2021-04-12T11:54:05Z</time>
      </trkpt>
      <trkpt lat="42.9284" lon="1.31566">
        <ele>997</ele>
        <time>2021-04-12T11:54:23Z</time>
      </trkpt>
      <trkpt lat="42.92823" lon="1.31577">
        <ele>993</ele>
        <time>2021-04-12T11:54:39Z</time>
      </trkpt>
      <trkpt lat="42.92816" lon="1.31586">
        <ele>993</ele>
        <time>2021-04-12T11:54:46Z</time>
      </trkpt>
      <trkpt lat="42.92805" lon="1.31608">
        <ele>992</ele>
        <time>2021-04-12T11:55:01Z</time>
      </trkpt>
      <trkpt lat="42.92801" lon="1.31619">
        <ele>991</ele>
        <time>2021-04-12T11:55:09Z</time>
      </trkpt>
      <trkpt lat="42.92796" lon="1.3163">
        <ele>989</ele>
        <time>2021-04-12T11:55:24Z</time>
      </trkpt>
      <trkpt lat="42.92789" lon="1.31645">
        <ele>986</ele>
        <time>2021-04-12T11:55:38Z</time>
      </trkpt>
      <trkpt lat="42.92782" lon="1.31656">
        <ele>984</ele>
        <time>2021-04-12T11:55:48Z</time>
      </trkpt>
      <trkpt lat="42.92778" lon="1.31668">
        <ele>983</ele>
        <time>2021-04-12T11:55:55Z</time>
      </trkpt>
      <trkpt lat="42.92777" lon="1.31695">
        <ele>982</ele>
        <time>2021-04-12T11:56:10Z</time>
      </trkpt>
      <trkpt lat="42.92771" lon="1.31705">
        <ele>981</ele>
        <time>2021-04-12T11:56:18Z</time>
      </trkpt>
      <trkpt lat="42.92763" lon="1.31723">
        <ele>978</ele>
        <time>2021-04-12T11:56:37Z</time>
      </trkpt>
      <trkpt lat="42.92763" lon="1.31735">
        <ele>977</ele>
        <time>2021-04-12T11:56:51Z</time>
      </trkpt>
      <trkpt lat="42.92754" lon="1.31741">
        <ele>978</ele>
        <time>2021-04-12T11:57:07Z</time>
      </trkpt>
      <trkpt lat="42.92755" lon="1.31758">
        <ele>974</ele>
        <time>2021-04-12T11:57:27Z</time>
      </trkpt>
      <trkpt lat="42.92751" lon="1.31773">
        <ele>970</ele>
        <time>2021-04-12T11:57:51Z</time>
      </trkpt>
      <trkpt lat="42.92742" lon="1.31772">
        <ele>967</ele>
        <time>2021-04-12T11:58:21Z</time>
      </trkpt>
      <trkpt lat="42.92731" lon="1.3178">
        <ele>961</ele>
        <time>2021-04-12T11:59:44Z</time>
      </trkpt>
      <trkpt lat="42.92724" lon="1.31772">
        <ele>956</ele>
        <time>2021-04-12T12:00:56Z</time>
      </trkpt>
      <trkpt lat="42.92715" lon="1.31775">
        <ele>952</ele>
        <time>2021-04-12T12:01:14Z</time>
      </trkpt>
      <trkpt lat="42.92713" lon="1.31788">
        <ele>950</ele>
        <time>2021-04-12T12:01:48Z</time>
      </trkpt>
      <trkpt lat="42.92706" lon="1.31789">
        <ele>948</ele>
        <time>2021-04-12T12:02:39Z</time>
      </trkpt>
      <trkpt lat="42.92706" lon="1.31798">
        <ele>946</ele>
        <time>2021-04-12T12:03:17Z</time>
      </trkpt>
      <trkpt lat="42.92701" lon="1.31805">
        <ele>944</ele>
        <time>2021-04-12T12:03:43Z</time>
      </trkpt>
      <trkpt lat="42.92696" lon="1.31806">
        <ele>942</ele>
        <time>2021-04-12T12:03:55Z</time>
      </trkpt>
      <trkpt lat="42.92689" lon="1.31803">
        <ele>938</ele>
        <time>2021-04-12T12:04:07Z</time>
      </trkpt>
      <trkpt lat="42.92673" lon="1.31809">
        <ele>931</ele>
        <time>2021-04-12T12:04:29Z</time>
      </trkpt>
      <trkpt lat="42.92668" lon="1.31814">
        <ele>930</ele>
        <time>2021-04-12T12:04:33Z</time>
      </trkpt>
      <trkpt lat="42.92651" lon="1.3182">
        <ele>921</ele>
        <time>2021-04-12T12:04:54Z</time>
      </trkpt>
      <trkpt lat="42.92647" lon="1.31797">
        <ele>918</ele>
        <time>2021-04-12T12:05:28Z</time>
      </trkpt>
      <trkpt lat="42.92654" lon="1.3179">
        <ele>918</ele>
        <time>2021-04-12T12:05:35Z</time>
      </trkpt>
      <trkpt lat="42.92658" lon="1.31777">
        <ele>918</ele>
        <time>2021-04-12T12:05:44Z</time>
      </trkpt>
      <trkpt lat="42.92667" lon="1.31759">
        <ele>919</ele>
        <time>2021-04-12T12:06:03Z</time>
      </trkpt>
      <trkpt lat="42.92674" lon="1.31747">
        <ele>919</ele>
        <time>2021-04-12T12:06:11Z</time>
      </trkpt>
      <trkpt lat="42.92674" lon="1.31734">
        <ele>919</ele>
        <time>2021-04-12T12:06:18Z</time>
      </trkpt>
      <trkpt lat="42.92679" lon="1.31723">
        <ele>919</ele>
        <time>2021-04-12T12:06:25Z</time>
      </trkpt>
      <trkpt lat="42.92694" lon="1.31683">
        <ele>920</ele>
        <time>2021-04-12T12:06:58Z</time>
      </trkpt>
      <trkpt lat="42.92697" lon="1.31671">
        <ele>921</ele>
        <time>2021-04-12T12:07:07Z</time>
      </trkpt>
      <trkpt lat="42.92703" lon="1.31646">
        <ele>921</ele>
        <time>2021-04-12T12:07:20Z</time>
      </trkpt>
      <trkpt lat="42.92709" lon="1.31637">
        <ele>921</ele>
        <time>2021-04-12T12:07:27Z</time>
      </trkpt>
      <trkpt lat="42.92712" lon="1.31623">
        <ele>921</ele>
        <time>2021-04-12T12:07:34Z</time>
      </trkpt>
      <trkpt lat="42.92711" lon="1.31611">
        <ele>921</ele>
        <time>2021-04-12T12:07:40Z</time>
      </trkpt>
      <trkpt lat="42.92715" lon="1.31599">
        <ele>921</ele>
        <time>2021-04-12T12:07:47Z</time>
      </trkpt>
      <trkpt lat="42.92721" lon="1.31583">
        <ele>921</ele>
        <time>2021-04-12T12:08:00Z</time>
      </trkpt>
      <trkpt lat="42.92731" lon="1.3156">
        <ele>922</ele>
        <time>2021-04-12T12:08:16Z</time>
      </trkpt>
      <trkpt lat="42.92739" lon="1.31552">
        <ele>922</ele>
        <time>2021-04-12T12:08:23Z</time>
      </trkpt>
      <trkpt lat="42.92745" lon="1.31533">
        <ele>923</ele>
        <time>2021-04-12T12:08:37Z</time>
      </trkpt>
      <trkpt lat="42.92754" lon="1.31513">
        <ele>923</ele>
        <time>2021-04-12T12:08:52Z</time>
      </trkpt>
      <trkpt lat="42.92773" lon="1.31478">
        <ele>924</ele>
        <time>2021-04-12T12:09:23Z</time>
      </trkpt>
      <trkpt lat="42.9278" lon="1.31463">
        <ele>924</ele>
        <time>2021-04-12T12:10:05Z</time>
      </trkpt>
      <trkpt lat="42.92762" lon="1.31457">
        <ele>925</ele>
        <time>2021-04-12T12:10:47Z</time>
      </trkpt>
      <trkpt lat="42.92755" lon="1.3145">
        <ele>926</ele>
        <time>2021-04-12T12:10:52Z</time>
      </trkpt>
      <trkpt lat="42.92745" lon="1.31456">
        <ele>927</ele>
        <time>2021-04-12T12:11:01Z</time>
      </trkpt>
      <trkpt lat="42.92736" lon="1.31464">
        <ele>926</ele>
        <time>2021-04-12T12:11:09Z</time>
      </trkpt>
      <trkpt lat="42.92728" lon="1.31468">
        <ele>925</ele>
        <time>2021-04-12T12:11:16Z</time>
      </trkpt>
      <trkpt lat="42.92709" lon="1.31474">
        <ele>924</ele>
        <time>2021-04-12T12:11:31Z</time>
      </trkpt>
      <trkpt lat="42.92699" lon="1.31477">
        <ele>923</ele>
        <time>2021-04-12T12:11:39Z</time>
      </trkpt>
      <trkpt lat="42.92682" lon="1.31491">
        <ele>922</ele>
        <time>2021-04-12T12:11:50Z</time>
      </trkpt>
      <trkpt lat="42.92676" lon="1.315">
        <ele>922</ele>
        <time>2021-04-12T12:11:56Z</time>
      </trkpt>
      <trkpt lat="42.92665" lon="1.31506">
        <ele>923</ele>
        <time>2021-04-12T12:12:03Z</time>
      </trkpt>
      <trkpt lat="42.92637" lon="1.31522">
        <ele>924</ele>
        <time>2021-04-12T12:12:24Z</time>
      </trkpt>
      <trkpt lat="42.9263" lon="1.31529">
        <ele>924</ele>
        <time>2021-04-12T12:12:31Z</time>
      </trkpt>
      <trkpt lat="42.92621" lon="1.31533">
        <ele>924</ele>
        <time>2021-04-12T12:12:38Z</time>
      </trkpt>
      <trkpt lat="42.92613" lon="1.31547">
        <ele>926</ele>
        <time>2021-04-12T12:12:52Z</time>
      </trkpt>
      <trkpt lat="42.92606" lon="1.31557">
        <ele>924</ele>
        <time>2021-04-12T12:13:00Z</time>
      </trkpt>
      <trkpt lat="42.92598" lon="1.31564">
        <ele>923</ele>
        <time>2021-04-12T12:13:08Z</time>
      </trkpt>
      <trkpt lat="42.92582" lon="1.31569">
        <ele>919</ele>
        <time>2021-04-12T12:13:26Z</time>
      </trkpt>
      <trkpt lat="42.9257" lon="1.31577">
        <ele>917</ele>
        <time>2021-04-12T12:13:35Z</time>
      </trkpt>
      <trkpt lat="42.92562" lon="1.31587">
        <ele>916</ele>
        <time>2021-04-12T12:13:40Z</time>
      </trkpt>
      <trkpt lat="42.92556" lon="1.31594">
        <ele>916</ele>
        <time>2021-04-12T12:13:47Z</time>
      </trkpt>
      <trkpt lat="42.92543" lon="1.31595">
        <ele>915</ele>
        <time>2021-04-12T12:14:03Z</time>
      </trkpt>
      <trkpt lat="42.92534" lon="1.31621">
        <ele>915</ele>
        <time>2021-04-12T12:14:14Z</time>
      </trkpt>
      <trkpt lat="42.92523" lon="1.31645">
        <ele>914</ele>
        <time>2021-04-12T12:14:26Z</time>
      </trkpt>
      <trkpt lat="42.92518" lon="1.31657">
        <ele>912</ele>
        <time>2021-04-12T12:14:33Z</time>
      </trkpt>
      <trkpt lat="42.92511" lon="1.31663">
        <ele>913</ele>
        <time>2021-04-12T12:14:52Z</time>
      </trkpt>
      <trkpt lat="42.92506" lon="1.31677">
        <ele>912</ele>
        <time>2021-04-12T12:15:17Z</time>
      </trkpt>
      <trkpt lat="42.925" lon="1.31684">
        <ele>911</ele>
        <time>2021-04-12T12:15:36Z</time>
      </trkpt>
      <trkpt lat="42.92494" lon="1.31702">
        <ele>910</ele>
        <time>2021-04-12T12:16:12Z</time>
      </trkpt>
      <trkpt lat="42.92488" lon="1.31711">
        <ele>908</ele>
        <time>2021-04-12T12:16:19Z</time>
      </trkpt>
      <trkpt lat="42.92482" lon="1.31721">
        <ele>906</ele>
        <time>2021-04-12T12:16:26Z</time>
      </trkpt>
      <trkpt lat="42.92473" lon="1.31723">
        <ele>905</ele>
        <time>2021-04-12T12:16:32Z</time>
      </trkpt>
      <trkpt lat="42.92465" lon="1.3173">
        <ele>904</ele>
        <time>2021-04-12T12:16:40Z</time>
      </trkpt>
      <trkpt lat="42.92448" lon="1.31746">
        <ele>903</ele>
        <time>2021-04-12T12:16:53Z</time>
      </trkpt>
      <trkpt lat="42.92439" lon="1.31749">
        <ele>902</ele>
        <time>2021-04-12T12:17:01Z</time>
      </trkpt>
      <trkpt lat="42.9243" lon="1.31751">
        <ele>902</ele>
        <time>2021-04-12T12:17:09Z</time>
      </trkpt>
      <trkpt lat="42.92421" lon="1.31757">
        <ele>901</ele>
        <time>2021-04-12T12:17:17Z</time>
      </trkpt>
      <trkpt lat="42.92403" lon="1.31763">
        <ele>901</ele>
        <time>2021-04-12T12:17:31Z</time>
      </trkpt>
      <trkpt lat="42.92392" lon="1.31771">
        <ele>901</ele>
        <time>2021-04-12T12:17:40Z</time>
      </trkpt>
      <trkpt lat="42.92373" lon="1.31771">
        <ele>901</ele>
        <time>2021-04-12T12:17:52Z</time>
      </trkpt>
      <trkpt lat="42.92365" lon="1.31776">
        <ele>901</ele>
        <time>2021-04-12T12:17:59Z</time>
      </trkpt>
      <trkpt lat="42.92355" lon="1.31775">
        <ele>900</ele>
        <time>2021-04-12T12:18:07Z</time>
      </trkpt>
      <trkpt lat="42.92346" lon="1.31774">
        <ele>900</ele>
        <time>2021-04-12T12:18:13Z</time>
      </trkpt>
      <trkpt lat="42.92329" lon="1.31763">
        <ele>899</ele>
        <time>2021-04-12T12:18:28Z</time>
      </trkpt>
      <trkpt lat="42.92309" lon="1.31761">
        <ele>897</ele>
        <time>2021-04-12T12:18:42Z</time>
      </trkpt>
      <trkpt lat="42.92291" lon="1.31767">
        <ele>895</ele>
        <time>2021-04-12T12:18:56Z</time>
      </trkpt>
      <trkpt lat="42.92282" lon="1.31768">
        <ele>893</ele>
        <time>2021-04-12T12:19:05Z</time>
      </trkpt>
      <trkpt lat="42.92254" lon="1.31779">
        <ele>891</ele>
        <time>2021-04-12T12:19:26Z</time>
      </trkpt>
      <trkpt lat="42.92239" lon="1.31762">
        <ele>889</ele>
        <time>2021-04-12T12:19:41Z</time>
      </trkpt>
      <trkpt lat="42.9222" lon="1.31763">
        <ele>887</ele>
        <time>2021-04-12T12:19:55Z</time>
      </trkpt>
      <trkpt lat="42.92201" lon="1.31772">
        <ele>884</ele>
        <time>2021-04-12T12:20:08Z</time>
      </trkpt>
      <trkpt lat="42.92159" lon="1.31761">
        <ele>879</ele>
        <time>2021-04-12T12:20:40Z</time>
      </trkpt>
      <trkpt lat="42.92151" lon="1.31757">
        <ele>877</ele>
        <time>2021-04-12T12:20:46Z</time>
      </trkpt>
      <trkpt lat="42.92122" lon="1.31751">
        <ele>874</ele>
        <time>2021-04-12T12:21:06Z</time>
      </trkpt>
      <trkpt lat="42.92117" lon="1.31744">
        <ele>873</ele>
        <time>2021-04-12T12:21:11Z</time>
      </trkpt>
      <trkpt lat="42.92115" lon="1.31738">
        <ele>872</ele>
        <time>2021-04-12T12:21:14Z</time>
      </trkpt>
      <trkpt lat="42.92114" lon="1.31725">
        <ele>871</ele>
        <time>2021-04-12T12:21:23Z</time>
      </trkpt>
      <trkpt lat="42.92108" lon="1.31713">
        <ele>869</ele>
        <time>2021-04-12T12:21:33Z</time>
      </trkpt>
      <trkpt lat="42.92109" lon="1.31691">
        <ele>868</ele>
        <time>2021-04-12T12:21:46Z</time>
      </trkpt>
      <trkpt lat="42.9211" lon="1.31684">
        <ele>867</ele>
        <time>2021-04-12T12:21:50Z</time>
      </trkpt>
      <trkpt lat="42.92111" lon="1.31671">
        <ele>865</ele>
        <time>2021-04-12T12:21:57Z</time>
      </trkpt>
      <trkpt lat="42.92114" lon="1.31658">
        <ele>864</ele>
        <time>2021-04-12T12:22:05Z</time>
      </trkpt>
      <trkpt lat="42.92116" lon="1.31644">
        <ele>863</ele>
        <time>2021-04-12T12:22:13Z</time>
      </trkpt>
      <trkpt lat="42.92119" lon="1.31638">
        <ele>862</ele>
        <time>2021-04-12T12:22:17Z</time>
      </trkpt>
      <trkpt lat="42.92129" lon="1.31623">
        <ele>860</ele>
        <time>2021-04-12T12:22:28Z</time>
      </trkpt>
      <trkpt lat="42.92136" lon="1.3161">
        <ele>858</ele>
        <time>2021-04-12T12:22:37Z</time>
      </trkpt>
      <trkpt lat="42.92138" lon="1.31603">
        <ele>858</ele>
        <time>2021-04-12T12:22:41Z</time>
      </trkpt>
      <trkpt lat="42.92144" lon="1.31592">
        <ele>859</ele>
        <time>2021-04-12T12:22:49Z</time>
      </trkpt>
      <trkpt lat="42.92154" lon="1.31571">
        <ele>860</ele>
        <time>2021-04-12T12:23:23Z</time>
      </trkpt>
      <trkpt lat="42.92157" lon="1.31564">
        <ele>861</ele>
        <time>2021-04-12T12:23:31Z</time>
      </trkpt>
      <trkpt lat="42.92161" lon="1.3156">
        <ele>861</ele>
        <time>2021-04-12T12:23:35Z</time>
      </trkpt>
      <trkpt lat="42.92172" lon="1.31528">
        <ele>863</ele>
        <time>2021-04-12T12:23:51Z</time>
      </trkpt>
      <trkpt lat="42.92175" lon="1.31523">
        <ele>864</ele>
        <time>2021-04-12T12:23:54Z</time>
      </trkpt>
      <trkpt lat="42.92179" lon="1.31509">
        <ele>864</ele>
        <time>2021-04-12T12:24:01Z</time>
      </trkpt>
      <trkpt lat="42.92181" lon="1.31503">
        <ele>864</ele>
        <time>2021-04-12T12:24:04Z</time>
      </trkpt>
      <trkpt lat="42.92191" lon="1.31485">
        <ele>866</ele>
        <time>2021-04-12T12:24:19Z</time>
      </trkpt>
      <trkpt lat="42.92199" lon="1.31461">
        <ele>867</ele>
        <time>2021-04-12T12:24:35Z</time>
      </trkpt>
      <trkpt lat="42.92187" lon="1.31451">
        <ele>869</ele>
        <time>2021-04-12T12:24:50Z</time>
      </trkpt>
      <trkpt lat="42.92168" lon="1.31444">
        <ele>870</ele>
        <time>2021-04-12T12:25:02Z</time>
      </trkpt>
      <trkpt lat="42.92153" lon="1.31426">
        <ele>872</ele>
        <time>2021-04-12T12:25:15Z</time>
      </trkpt>
      <trkpt lat="42.92143" lon="1.31431">
        <ele>872</ele>
        <time>2021-04-12T12:25:21Z</time>
      </trkpt>
      <trkpt lat="42.9211" lon="1.31455">
        <ele>875</ele>
        <time>2021-04-12T12:25:45Z</time>
      </trkpt>
      <trkpt lat="42.92082" lon="1.31455">
        <ele>877</ele>
        <time>2021-04-12T12:26:07Z</time>
      </trkpt>
      <trkpt lat="42.92063" lon="1.31447">
        <ele>879</ele>
        <time>2021-04-12T12:26:24Z</time>
      </trkpt>
      <trkpt lat="42.92054" lon="1.31446">
        <ele>880</ele>
        <time>2021-04-12T12:26:32Z</time>
      </trkpt>
      <trkpt lat="42.92044" lon="1.31442">
        <ele>880</ele>
        <time>2021-04-12T12:26:40Z</time>
      </trkpt>
      <trkpt lat="42.92034" lon="1.31443">
        <ele>880</ele>
        <time>2021-04-12T12:26:47Z</time>
      </trkpt>
      <trkpt lat="42.9202" lon="1.31436">
        <ele>880</ele>
        <time>2021-04-12T12:26:57Z</time>
      </trkpt>
      <trkpt lat="42.92014" lon="1.31437">
        <ele>880</ele>
        <time>2021-04-12T12:27:01Z</time>
      </trkpt>
      <trkpt lat="42.92009" lon="1.31438">
        <ele>880</ele>
        <time>2021-04-12T12:27:08Z</time>
      </trkpt>
      <trkpt lat="42.92004" lon="1.31434">
        <ele>880</ele>
        <time>2021-04-12T12:27:12Z</time>
      </trkpt>
      <trkpt lat="42.91994" lon="1.31424">
        <ele>880</ele>
        <time>2021-04-12T12:27:24Z</time>
      </trkpt>
      <trkpt lat="42.9199" lon="1.31421">
        <ele>880</ele>
        <time>2021-04-12T12:27:27Z</time>
      </trkpt>
      <trkpt lat="42.91986" lon="1.31418">
        <ele>881</ele>
        <time>2021-04-12T12:27:31Z</time>
      </trkpt>
      <trkpt lat="42.91971" lon="1.31397">
        <ele>882</ele>
        <time>2021-04-12T12:27:46Z</time>
      </trkpt>
      <trkpt lat="42.91967" lon="1.31394">
        <ele>882</ele>
        <time>2021-04-12T12:27:50Z</time>
      </trkpt>
      <trkpt lat="42.91961" lon="1.31383">
        <ele>882</ele>
        <time>2021-04-12T12:27:58Z</time>
      </trkpt>
      <trkpt lat="42.91958" lon="1.31377">
        <ele>882</ele>
        <time>2021-04-12T12:28:02Z</time>
      </trkpt>
      <trkpt lat="42.91957" lon="1.31369">
        <ele>882</ele>
        <time>2021-04-12T12:28:06Z</time>
      </trkpt>
      <trkpt lat="42.91957" lon="1.31362">
        <ele>883</ele>
        <time>2021-04-12T12:28:10Z</time>
      </trkpt>
      <trkpt lat="42.91959" lon="1.31349">
        <ele>884</ele>
        <time>2021-04-12T12:28:19Z</time>
      </trkpt>
      <trkpt lat="42.91982" lon="1.31301">
        <ele>887</ele>
        <time>2021-04-12T12:28:53Z</time>
      </trkpt>
      <trkpt lat="42.91977" lon="1.3128">
        <ele>888</ele>
        <time>2021-04-12T12:29:08Z</time>
      </trkpt>
      <trkpt lat="42.9196" lon="1.31267">
        <ele>887</ele>
        <time>2021-04-12T12:29:20Z</time>
      </trkpt>
      <trkpt lat="42.91951" lon="1.31267">
        <ele>887</ele>
        <time>2021-04-12T12:29:28Z</time>
      </trkpt>
      <trkpt lat="42.91941" lon="1.31263">
        <ele>887</ele>
        <time>2021-04-12T12:29:35Z</time>
      </trkpt>
      <trkpt lat="42.91933" lon="1.31255">
        <ele>886</ele>
        <time>2021-04-12T12:29:41Z</time>
      </trkpt>
      <trkpt lat="42.91898" lon="1.31236">
        <ele>885</ele>
        <time>2021-04-12T12:30:10Z</time>
      </trkpt>
      <trkpt lat="42.91888" lon="1.31237">
        <ele>885</ele>
        <time>2021-04-12T12:30:17Z</time>
      </trkpt>
      <trkpt lat="42.91873" lon="1.31207">
        <ele>889</ele>
        <time>2021-04-12T12:30:44Z</time>
      </trkpt>
      <trkpt lat="42.91869" lon="1.31195">
        <ele>890</ele>
        <time>2021-04-12T12:30:52Z</time>
      </trkpt>
      <trkpt lat="42.91869" lon="1.31182">
        <ele>891</ele>
        <time>2021-04-12T12:30:59Z</time>
      </trkpt>
      <trkpt lat="42.9186" lon="1.31156">
        <ele>893</ele>
        <time>2021-04-12T12:31:15Z</time>
      </trkpt>
      <trkpt lat="42.91859" lon="1.31144">
        <ele>893</ele>
        <time>2021-04-12T12:31:21Z</time>
      </trkpt>
      <trkpt lat="42.91854" lon="1.31125">
        <ele>894</ele>
        <time>2021-04-12T12:31:31Z</time>
      </trkpt>
      <trkpt lat="42.91848" lon="1.31112">
        <ele>895</ele>
        <time>2021-04-12T12:31:39Z</time>
      </trkpt>
      <trkpt lat="42.91845" lon="1.31106">
        <ele>895</ele>
        <time>2021-04-12T12:31:43Z</time>
      </trkpt>
      <trkpt lat="42.91847" lon="1.311">
        <ele>895</ele>
        <time>2021-04-12T12:31:47Z</time>
      </trkpt>
      <trkpt lat="42.9184" lon="1.31072">
        <ele>897</ele>
        <time>2021-04-12T12:32:04Z</time>
      </trkpt>
      <trkpt lat="42.91838" lon="1.31058">
        <ele>898</ele>
        <time>2021-04-12T12:32:12Z</time>
      </trkpt>
      <trkpt lat="42.91834" lon="1.31037">
        <ele>898</ele>
        <time>2021-04-12T12:32:24Z</time>
      </trkpt>
      <trkpt lat="42.91833" lon="1.31016">
        <ele>897</ele>
        <time>2021-04-12T12:32:35Z</time>
      </trkpt>
      <trkpt lat="42.91824" lon="1.30995">
        <ele>896</ele>
        <time>2021-04-12T12:32:50Z</time>
      </trkpt>
      <trkpt lat="42.91816" lon="1.3099">
        <ele>895</ele>
        <time>2021-04-12T12:32:59Z</time>
      </trkpt>
      <trkpt lat="42.91811" lon="1.30988">
        <ele>895</ele>
        <time>2021-04-12T12:33:03Z</time>
      </trkpt>
      <trkpt lat="42.91803" lon="1.3099">
        <ele>895</ele>
        <time>2021-04-12T12:33:36Z</time>
      </trkpt>
      <trkpt lat="42.91798" lon="1.30989">
        <ele>895</ele>
        <time>2021-04-12T12:33:40Z</time>
      </trkpt>
      <trkpt lat="42.91778" lon="1.30984">
        <ele>897</ele>
        <time>2021-04-12T12:34:11Z</time>
      </trkpt>
      <trkpt lat="42.91773" lon="1.30975">
        <ele>898</ele>
        <time>2021-04-12T12:34:19Z</time>
      </trkpt>
      <trkpt lat="42.91762" lon="1.30957">
        <ele>901</ele>
        <time>2021-04-12T12:34:41Z</time>
      </trkpt>
      <trkpt lat="42.9175" lon="1.30946">
        <ele>903</ele>
        <time>2021-04-12T12:34:57Z</time>
      </trkpt>
      <trkpt lat="42.91738" lon="1.3095">
        <ele>903</ele>
        <time>2021-04-12T12:35:08Z</time>
      </trkpt>
      <trkpt lat="42.91729" lon="1.30944">
        <ele>904</ele>
        <time>2021-04-12T12:35:15Z</time>
      </trkpt>
      <trkpt lat="42.91711" lon="1.30922">
        <ele>905</ele>
        <time>2021-04-12T12:35:50Z</time>
      </trkpt>
      <trkpt lat="42.91704" lon="1.30913">
        <ele>904</ele>
        <time>2021-04-12T12:36:00Z</time>
      </trkpt>
      <trkpt lat="42.91694" lon="1.30907">
        <ele>903</ele>
        <time>2021-04-12T12:36:10Z</time>
      </trkpt>
      <trkpt lat="42.91683" lon="1.30881">
        <ele>903</ele>
        <time>2021-04-12T12:36:27Z</time>
      </trkpt>
      <trkpt lat="42.91673" lon="1.30876">
        <ele>903</ele>
        <time>2021-04-12T12:36:35Z</time>
      </trkpt>
      <trkpt lat="42.91654" lon="1.30871">
        <ele>904</ele>
        <time>2021-04-12T12:36:45Z</time>
      </trkpt>
      <trkpt lat="42.91646" lon="1.30865">
        <ele>905</ele>
        <time>2021-04-12T12:36:53Z</time>
      </trkpt>
      <trkpt lat="42.91637" lon="1.30865">
        <ele>906</ele>
        <time>2021-04-12T12:37:01Z</time>
      </trkpt>
      <trkpt lat="42.91627" lon="1.30867">
        <ele>906</ele>
        <time>2021-04-12T12:37:07Z</time>
      </trkpt>
      <trkpt lat="42.91609" lon="1.3086">
        <ele>907</ele>
        <time>2021-04-12T12:37:21Z</time>
      </trkpt>
      <trkpt lat="42.91582" lon="1.30838">
        <ele>907</ele>
        <time>2021-04-12T12:37:47Z</time>
      </trkpt>
      <trkpt lat="42.91573" lon="1.30833">
        <ele>907</ele>
        <time>2021-04-12T12:37:54Z</time>
      </trkpt>
      <trkpt lat="42.91551" lon="1.30805">
        <ele>906</ele>
        <time>2021-04-12T12:38:16Z</time>
      </trkpt>
      <trkpt lat="42.91526" lon="1.3076">
        <ele>905</ele>
        <time>2021-04-12T12:38:46Z</time>
      </trkpt>
      <trkpt lat="42.91522" lon="1.3074">
        <ele>904</ele>
        <time>2021-04-12T12:38:58Z</time>
      </trkpt>
      <trkpt lat="42.91516" lon="1.30726">
        <ele>904</ele>
        <time>2021-04-12T12:39:06Z</time>
      </trkpt>
      <trkpt lat="42.91512" lon="1.30714">
        <ele>904</ele>
        <time>2021-04-12T12:39:14Z</time>
      </trkpt>
      <trkpt lat="42.91509" lon="1.30709">
        <ele>904</ele>
        <time>2021-04-12T12:39:18Z</time>
      </trkpt>
      <trkpt lat="42.91507" lon="1.30703">
        <ele>904</ele>
        <time>2021-04-12T12:39:21Z</time>
      </trkpt>
      <trkpt lat="42.91504" lon="1.30698">
        <ele>904</ele>
        <time>2021-04-12T12:39:24Z</time>
      </trkpt>
      <trkpt lat="42.915" lon="1.30694">
        <ele>904</ele>
        <time>2021-04-12T12:39:28Z</time>
      </trkpt>
      <trkpt lat="42.91473" lon="1.30642">
        <ele>904</ele>
        <time>2021-04-12T12:40:02Z</time>
      </trkpt>
      <trkpt lat="42.91466" lon="1.30632">
        <ele>904</ele>
        <time>2021-04-12T12:40:08Z</time>
      </trkpt>
      <trkpt lat="42.91445" lon="1.30571">
        <ele>901</ele>
        <time>2021-04-12T12:40:42Z</time>
      </trkpt>
      <trkpt lat="42.91444" lon="1.30544">
        <ele>900</ele>
        <time>2021-04-12T12:40:56Z</time>
      </trkpt>
      <trkpt lat="42.91445" lon="1.30532">
        <ele>900</ele>
        <time>2021-04-12T12:41:03Z</time>
      </trkpt>
      <trkpt lat="42.91443" lon="1.30519">
        <ele>900</ele>
        <time>2021-04-12T12:41:10Z</time>
      </trkpt>
      <trkpt lat="42.91433" lon="1.30496">
        <ele>899</ele>
        <time>2021-04-12T12:41:24Z</time>
      </trkpt>
      <trkpt lat="42.91424" lon="1.30489">
        <ele>900</ele>
        <time>2021-04-12T12:41:32Z</time>
      </trkpt>
      <trkpt lat="42.9142" lon="1.30489">
        <ele>900</ele>
        <time>2021-04-12T12:41:36Z</time>
      </trkpt>
      <trkpt lat="42.91412" lon="1.30498">
        <ele>900</ele>
        <time>2021-04-12T12:41:46Z</time>
      </trkpt>
      <trkpt lat="42.91405" lon="1.3051">
        <ele>900</ele>
        <time>2021-04-12T12:41:53Z</time>
      </trkpt>
      <trkpt lat="42.91369" lon="1.30543">
        <ele>897</ele>
        <time>2021-04-12T12:42:27Z</time>
      </trkpt>
      <trkpt lat="42.91336" lon="1.30559">
        <ele>895</ele>
        <time>2021-04-12T12:42:53Z</time>
      </trkpt>
      <trkpt lat="42.91329" lon="1.3057">
        <ele>894</ele>
        <time>2021-04-12T12:43:12Z</time>
      </trkpt>
      <trkpt lat="42.91311" lon="1.30581">
        <ele>893</ele>
        <time>2021-04-12T12:43:25Z</time>
      </trkpt>
      <trkpt lat="42.91302" lon="1.30581">
        <ele>893</ele>
        <time>2021-04-12T12:43:32Z</time>
      </trkpt>
      <trkpt lat="42.91259" lon="1.30574">
        <ele>891</ele>
        <time>2021-04-12T12:44:31Z</time>
      </trkpt>
      <trkpt lat="42.91231" lon="1.3057">
        <ele>888</ele>
        <time>2021-04-12T12:44:48Z</time>
      </trkpt>
      <trkpt lat="42.91222" lon="1.30565">
        <ele>887</ele>
        <time>2021-04-12T12:44:55Z</time>
      </trkpt>
      <trkpt lat="42.91203" lon="1.30535">
        <ele>882</ele>
        <time>2021-04-12T12:45:18Z</time>
      </trkpt>
      <trkpt lat="42.91198" lon="1.30525">
        <ele>880</ele>
        <time>2021-04-12T12:45:26Z</time>
      </trkpt>
      <trkpt lat="42.91188" lon="1.30518">
        <ele>878</ele>
        <time>2021-04-12T12:45:38Z</time>
      </trkpt>
      <trkpt lat="42.91179" lon="1.3052">
        <ele>876</ele>
        <time>2021-04-12T12:45:46Z</time>
      </trkpt>
      <trkpt lat="42.9117" lon="1.30518">
        <ele>874</ele>
        <time>2021-04-12T12:45:53Z</time>
      </trkpt>
      <trkpt lat="42.91161" lon="1.30514">
        <ele>872</ele>
        <time>2021-04-12T12:46:00Z</time>
      </trkpt>
      <trkpt lat="42.91111" lon="1.30515">
        <ele>862</ele>
        <time>2021-04-12T12:46:35Z</time>
      </trkpt>
      <trkpt lat="42.91079" lon="1.30501">
        <ele>856</ele>
        <time>2021-04-12T12:47:06Z</time>
      </trkpt>
      <trkpt lat="42.91071" lon="1.30505">
        <ele>855</ele>
        <time>2021-04-12T12:47:13Z</time>
      </trkpt>
      <trkpt lat="42.9105" lon="1.30502">
        <ele>853</ele>
        <time>2021-04-12T12:47:26Z</time>
      </trkpt>
      <trkpt lat="42.9104" lon="1.30502">
        <ele>852</ele>
        <time>2021-04-12T12:47:33Z</time>
      </trkpt>
      <trkpt lat="42.91023" lon="1.30491">
        <ele>851</ele>
        <time>2021-04-12T12:47:46Z</time>
      </trkpt>
      <trkpt lat="42.90995" lon="1.30494">
        <ele>849</ele>
        <time>2021-04-12T12:48:06Z</time>
      </trkpt>
      <trkpt lat="42.90963" lon="1.30485">
        <ele>847</ele>
        <time>2021-04-12T12:48:35Z</time>
      </trkpt>
      <trkpt lat="42.90953" lon="1.3048">
        <ele>847</ele>
        <time>2021-04-12T12:48:42Z</time>
      </trkpt>
      <trkpt lat="42.90934" lon="1.30484">
        <ele>846</ele>
        <time>2021-04-12T12:48:55Z</time>
      </trkpt>
      <trkpt lat="42.90924" lon="1.30479">
        <ele>846</ele>
        <time>2021-04-12T12:49:03Z</time>
      </trkpt>
      <trkpt lat="42.90916" lon="1.3048">
        <ele>845</ele>
        <time>2021-04-12T12:49:09Z</time>
      </trkpt>
      <trkpt lat="42.90896" lon="1.30479">
        <ele>845</ele>
        <time>2021-04-12T12:49:23Z</time>
      </trkpt>
      <trkpt lat="42.90872" lon="1.30488">
        <ele>845</ele>
        <time>2021-04-12T12:49:57Z</time>
      </trkpt>
      <trkpt lat="42.90861" lon="1.30487">
        <ele>844</ele>
        <time>2021-04-12T12:50:05Z</time>
      </trkpt>
      <trkpt lat="42.90851" lon="1.30486">
        <ele>844</ele>
        <time>2021-04-12T12:50:14Z</time>
      </trkpt>
      <trkpt lat="42.9083" lon="1.30482">
        <ele>842</ele>
        <time>2021-04-12T12:50:31Z</time>
      </trkpt>
      <trkpt lat="42.90819" lon="1.30483">
        <ele>841</ele>
        <time>2021-04-12T12:50:39Z</time>
      </trkpt>
      <trkpt lat="42.908" lon="1.30479">
        <ele>838</ele>
        <time>2021-04-12T12:50:55Z</time>
      </trkpt>
      <trkpt lat="42.90794" lon="1.3048">
        <ele>838</ele>
        <time>2021-04-12T12:50:59Z</time>
      </trkpt>
      <trkpt lat="42.90789" lon="1.30478">
        <ele>837</ele>
        <time>2021-04-12T12:51:04Z</time>
      </trkpt>
      <trkpt lat="42.90776" lon="1.30465">
        <ele>833</ele>
        <time>2021-04-12T12:51:17Z</time>
      </trkpt>
      <trkpt lat="42.90771" lon="1.30463">
        <ele>832</ele>
        <time>2021-04-12T12:51:22Z</time>
      </trkpt>
      <trkpt lat="42.90764" lon="1.30453">
        <ele>830</ele>
        <time>2021-04-12T12:51:31Z</time>
      </trkpt>
      <trkpt lat="42.90744" lon="1.30437">
        <ele>826</ele>
        <time>2021-04-12T12:51:53Z</time>
      </trkpt>
      <trkpt lat="42.90735" lon="1.30437">
        <ele>824</ele>
        <time>2021-04-12T12:52:13Z</time>
      </trkpt>
      <trkpt lat="42.90718" lon="1.30432">
        <ele>822</ele>
        <time>2021-04-12T12:52:39Z</time>
      </trkpt>
      <trkpt lat="42.90699" lon="1.30436">
        <ele>819</ele>
        <time>2021-04-12T12:52:55Z</time>
      </trkpt>
      <trkpt lat="42.9069" lon="1.30433">
        <ele>818</ele>
        <time>2021-04-12T12:53:01Z</time>
      </trkpt>
      <trkpt lat="42.90658" lon="1.30438">
        <ele>813</ele>
        <time>2021-04-12T12:53:26Z</time>
      </trkpt>
      <trkpt lat="42.90645" lon="1.30443">
        <ele>810</ele>
        <time>2021-04-12T12:53:39Z</time>
      </trkpt>
      <trkpt lat="42.90637" lon="1.30452">
        <ele>807</ele>
        <time>2021-04-12T12:53:48Z</time>
      </trkpt>
      <trkpt lat="42.90627" lon="1.30457">
        <ele>805</ele>
        <time>2021-04-12T12:53:57Z</time>
      </trkpt>
      <trkpt lat="42.90606" lon="1.30456">
        <ele>800</ele>
        <time>2021-04-12T12:54:22Z</time>
      </trkpt>
      <trkpt lat="42.90597" lon="1.30458">
        <ele>799</ele>
        <time>2021-04-12T12:54:30Z</time>
      </trkpt>
      <trkpt lat="42.90579" lon="1.30449">
        <ele>798</ele>
        <time>2021-04-12T12:54:41Z</time>
      </trkpt>
      <trkpt lat="42.90572" lon="1.30458">
        <ele>797</ele>
        <time>2021-04-12T12:54:47Z</time>
      </trkpt>
      <trkpt lat="42.90563" lon="1.30461">
        <ele>796</ele>
        <time>2021-04-12T12:54:53Z</time>
      </trkpt>
      <trkpt lat="42.90529" lon="1.30453">
        <ele>790</ele>
        <time>2021-04-12T12:55:28Z</time>
      </trkpt>
      <trkpt lat="42.90519" lon="1.30457">
        <ele>788</ele>
        <time>2021-04-12T12:55:35Z</time>
      </trkpt>
      <trkpt lat="42.90512" lon="1.30447">
        <ele>787</ele>
        <time>2021-04-12T12:55:43Z</time>
      </trkpt>
      <trkpt lat="42.90503" lon="1.30442">
        <ele>786</ele>
        <time>2021-04-12T12:55:52Z</time>
      </trkpt>
      <trkpt lat="42.90488" lon="1.30428">
        <ele>785</ele>
        <time>2021-04-12T12:56:05Z</time>
      </trkpt>
      <trkpt lat="42.90478" lon="1.30428">
        <ele>784</ele>
        <time>2021-04-12T12:56:11Z</time>
      </trkpt>
      <trkpt lat="42.90459" lon="1.30435">
        <ele>780</ele>
        <time>2021-04-12T12:56:24Z</time>
      </trkpt>
      <trkpt lat="42.90446" lon="1.30428">
        <ele>778</ele>
        <time>2021-04-12T12:56:39Z</time>
      </trkpt>
      <trkpt lat="42.90436" lon="1.30432">
        <ele>776</ele>
        <time>2021-04-12T12:56:47Z</time>
      </trkpt>
      <trkpt lat="42.90397" lon="1.30429">
        <ele>768</ele>
        <time>2021-04-12T12:57:18Z</time>
      </trkpt>
      <trkpt lat="42.9036" lon="1.30441">
        <ele>759</ele>
        <time>2021-04-12T12:57:52Z</time>
      </trkpt>
      <trkpt lat="42.90351" lon="1.30439">
        <ele>758</ele>
        <time>2021-04-12T12:57:58Z</time>
      </trkpt>
      <trkpt lat="42.90332" lon="1.30445">
        <ele>752</ele>
        <time>2021-04-12T12:58:17Z</time>
      </trkpt>
      <trkpt lat="42.90323" lon="1.30444">
        <ele>750</ele>
        <time>2021-04-12T12:58:25Z</time>
      </trkpt>
      <trkpt lat="42.90318" lon="1.30447">
        <ele>748</ele>
        <time>2021-04-12T12:58:30Z</time>
      </trkpt>
      <trkpt lat="42.90315" lon="1.30452">
        <ele>746</ele>
        <time>2021-04-12T12:58:35Z</time>
      </trkpt>
      <trkpt lat="42.9031" lon="1.30456">
        <ele>745</ele>
        <time>2021-04-12T12:58:40Z</time>
      </trkpt>
      <trkpt lat="42.90304" lon="1.30456">
        <ele>743</ele>
        <time>2021-04-12T12:58:47Z</time>
      </trkpt>
      <trkpt lat="42.90301" lon="1.3047">
        <ele>741</ele>
        <time>2021-04-12T12:58:57Z</time>
      </trkpt>
      <trkpt lat="42.90295" lon="1.30471">
        <ele>739</ele>
        <time>2021-04-12T12:59:02Z</time>
      </trkpt>
      <trkpt lat="42.90285" lon="1.30469">
        <ele>736</ele>
        <time>2021-04-12T12:59:09Z</time>
      </trkpt>
      <trkpt lat="42.9028" lon="1.3047">
        <ele>735</ele>
        <time>2021-04-12T12:59:13Z</time>
      </trkpt>
      <trkpt lat="42.90276" lon="1.30474">
        <ele>734</ele>
        <time>2021-04-12T12:59:17Z</time>
      </trkpt>
      <trkpt lat="42.90273" lon="1.3048">
        <ele>732</ele>
        <time>2021-04-12T12:59:21Z</time>
      </trkpt>
      <trkpt lat="42.90269" lon="1.30474">
        <ele>732</ele>
        <time>2021-04-12T12:59:27Z</time>
      </trkpt>
      <trkpt lat="42.9027" lon="1.30467">
        <ele>731</ele>
        <time>2021-04-12T12:59:31Z</time>
      </trkpt>
      <trkpt lat="42.90271" lon="1.3046">
        <ele>731</ele>
        <time>2021-04-12T12:59:36Z</time>
      </trkpt>
      <trkpt lat="42.90268" lon="1.30461">
        <ele>727</ele>
        <time>2021-04-12T13:03:49Z</time>
      </trkpt>
      <trkpt lat="42.90264" lon="1.30465">
        <ele>725</ele>
        <time>2021-04-12T13:03:54Z</time>
      </trkpt>
      <trkpt lat="42.90257" lon="1.30466">
        <ele>724</ele>
        <time>2021-04-12T13:04:08Z</time>
      </trkpt>
      <trkpt lat="42.90251" lon="1.30476">
        <ele>723</ele>
        <time>2021-04-12T13:04:18Z</time>
      </trkpt>
      <trkpt lat="42.90233" lon="1.30474">
        <ele>717</ele>
        <time>2021-04-12T13:04:40Z</time>
      </trkpt>
      <trkpt lat="42.90228" lon="1.30477">
        <ele>715</ele>
        <time>2021-04-12T13:04:45Z</time>
      </trkpt>
      <trkpt lat="42.90219" lon="1.30485">
        <ele>712</ele>
        <time>2021-04-12T13:04:55Z</time>
      </trkpt>
      <trkpt lat="42.902" lon="1.30491">
        <ele>707</ele>
        <time>2021-04-12T13:05:13Z</time>
      </trkpt>
      <trkpt lat="42.9019" lon="1.30498">
        <ele>704</ele>
        <time>2021-04-12T13:05:25Z</time>
      </trkpt>
      <trkpt lat="42.90179" lon="1.30515">
        <ele>699</ele>
        <time>2021-04-12T13:05:44Z</time>
      </trkpt>
      <trkpt lat="42.90175" lon="1.3052">
        <ele>697</ele>
        <time>2021-04-12T13:05:49Z</time>
      </trkpt>
      <trkpt lat="42.9017" lon="1.30516">
        <ele>696</ele>
        <time>2021-04-12T13:05:54Z</time>
      </trkpt>
      <trkpt lat="42.90156" lon="1.30532">
        <ele>691</ele>
        <time>2021-04-12T13:06:23Z</time>
      </trkpt>
      <trkpt lat="42.90153" lon="1.30537">
        <ele>690</ele>
        <time>2021-04-12T13:06:28Z</time>
      </trkpt>
      <trkpt lat="42.90148" lon="1.30558">
        <ele>687</ele>
        <time>2021-04-12T13:06:40Z</time>
      </trkpt>
      <trkpt lat="42.90144" lon="1.30572">
        <ele>685</ele>
        <time>2021-04-12T13:06:48Z</time>
      </trkpt>
      <trkpt lat="42.90141" lon="1.30612">
        <ele>679</ele>
        <time>2021-04-12T13:07:11Z</time>
      </trkpt>
      <trkpt lat="42.90143" lon="1.3062">
        <ele>678</ele>
        <time>2021-04-12T13:07:15Z</time>
      </trkpt>
      <trkpt lat="42.9015" lon="1.3063">
        <ele>676</ele>
        <time>2021-04-12T13:07:22Z</time>
      </trkpt>
      <trkpt lat="42.90151" lon="1.30637">
        <ele>675</ele>
        <time>2021-04-12T13:07:26Z</time>
      </trkpt>
      <trkpt lat="42.90152" lon="1.30644">
        <ele>675</ele>
        <time>2021-04-12T13:07:30Z</time>
      </trkpt>
      <trkpt lat="42.90148" lon="1.30641">
        <ele>673</ele>
        <time>2021-04-12T13:19:36Z</time>
      </trkpt>
      <trkpt lat="42.90141" lon="1.30651">
        <ele>670</ele>
        <time>2021-04-12T13:19:43Z</time>
      </trkpt>
      <trkpt lat="42.90136" lon="1.30654">
        <ele>667</ele>
        <time>2021-04-12T13:19:47Z</time>
      </trkpt>
      <trkpt lat="42.90131" lon="1.30656">
        <ele>665</ele>
        <time>2021-04-12T13:19:52Z</time>
      </trkpt>
      <trkpt lat="42.90127" lon="1.30661">
        <ele>663</ele>
        <time>2021-04-12T13:19:57Z</time>
      </trkpt>
      <trkpt lat="42.90124" lon="1.30666">
        <ele>661</ele>
        <time>2021-04-12T13:20:02Z</time>
      </trkpt>
      <trkpt lat="42.90121" lon="1.30683">
        <ele>657</ele>
        <time>2021-04-12T13:20:15Z</time>
      </trkpt>
      <trkpt lat="42.90117" lon="1.30687">
        <ele>655</ele>
        <time>2021-04-12T13:20:24Z</time>
      </trkpt>
      <trkpt lat="42.90102" lon="1.30688">
        <ele>651</ele>
        <time>2021-04-12T13:20:37Z</time>
      </trkpt>
      <trkpt lat="42.90094" lon="1.30689">
        <ele>649</ele>
        <time>2021-04-12T13:21:19Z</time>
      </trkpt>
      <trkpt lat="42.90081" lon="1.30675">
        <ele>645</ele>
        <time>2021-04-12T13:21:29Z</time>
      </trkpt>
      <trkpt lat="42.90076" lon="1.30656">
        <ele>642</ele>
        <time>2021-04-12T13:21:38Z</time>
      </trkpt>
      <trkpt lat="42.90061" lon="1.3065">
        <ele>637</ele>
        <time>2021-04-12T13:21:48Z</time>
      </trkpt>
      <trkpt lat="42.90058" lon="1.30655">
        <ele>632</ele>
        <time>2021-04-12T13:22:03Z</time>
      </trkpt>
      <trkpt lat="42.90048" lon="1.30657">
        <ele>628</ele>
        <time>2021-04-12T13:22:18Z</time>
      </trkpt>
      <trkpt lat="42.90042" lon="1.30668">
        <ele>626</ele>
        <time>2021-04-12T13:22:29Z</time>
      </trkpt>
      <trkpt lat="42.90018" lon="1.30682">
        <ele>616</ele>
        <time>2021-04-12T13:23:02Z</time>
      </trkpt>
      <trkpt lat="42.90003" lon="1.30682">
        <ele>611</ele>
        <time>2021-04-12T13:23:16Z</time>
      </trkpt>
      <trkpt lat="42.89998" lon="1.30694">
        <ele>607</ele>
        <time>2021-04-12T13:23:25Z</time>
      </trkpt>
      <trkpt lat="42.9" lon="1.30691">
        <ele>599</ele>
        <time>2021-04-12T13:23:56Z</time>
      </trkpt>
      <trkpt lat="42.9" lon="1.307">
        <ele>599</ele>
        <time>2021-04-12T13:24:08Z</time>
      </trkpt>
      <trkpt lat="42.89996" lon="1.30704">
        <ele>599</ele>
        <time>2021-04-12T13:24:14Z</time>
      </trkpt>
      <trkpt lat="42.89987" lon="1.30733">
        <ele>597</ele>
        <time>2021-04-12T13:24:29Z</time>
      </trkpt>
      <trkpt lat="42.8999" lon="1.30763">
        <ele>594</ele>
        <time>2021-04-12T13:24:45Z</time>
      </trkpt>
      <trkpt lat="42.89992" lon="1.30769">
        <ele>593</ele>
        <time>2021-04-12T13:24:49Z</time>
      </trkpt>
      <trkpt lat="42.89991" lon="1.30777">
        <ele>593</ele>
        <time>2021-04-12T13:24:53Z</time>
      </trkpt>
      <trkpt lat="42.89977" lon="1.30817">
        <ele>592</ele>
        <time>2021-04-12T13:25:17Z</time>
      </trkpt>
      <trkpt lat="42.8996" lon="1.30841">
        <ele>593</ele>
        <time>2021-04-12T13:25:37Z</time>
      </trkpt>
      <trkpt lat="42.89931" lon="1.30864">
        <ele>592</ele>
        <time>2021-04-12T13:26:00Z</time>
      </trkpt>
      <trkpt lat="42.89917" lon="1.30891">
        <ele>592</ele>
        <time>2021-04-12T13:26:16Z</time>
      </trkpt>
      <trkpt lat="42.89904" lon="1.30928">
        <ele>593</ele>
        <time>2021-04-12T13:26:35Z</time>
      </trkpt>
      <trkpt lat="42.89887" lon="1.30992">
        <ele>593</ele>
        <time>2021-04-12T13:27:09Z</time>
      </trkpt>
      <trkpt lat="42.89883" lon="1.31014">
        <ele>594</ele>
        <time>2021-04-12T13:27:21Z</time>
      </trkpt>
      <trkpt lat="42.89881" lon="1.3102">
        <ele>594</ele>
        <time>2021-04-12T13:27:25Z</time>
      </trkpt>
      <trkpt lat="42.89873" lon="1.31082">
        <ele>594</ele>
        <time>2021-04-12T13:27:57Z</time>
      </trkpt>
      <trkpt lat="42.89859" lon="1.31145">
        <ele>594</ele>
        <time>2021-04-12T13:28:29Z</time>
      </trkpt>
      <trkpt lat="42.89854" lon="1.31182">
        <ele>595</ele>
        <time>2021-04-12T13:28:49Z</time>
      </trkpt>
      <trkpt lat="42.8985" lon="1.31196">
        <ele>595</ele>
        <time>2021-04-12T13:28:57Z</time>
      </trkpt>
      <trkpt lat="42.89851" lon="1.31202">
        <ele>595</ele>
        <time>2021-04-12T13:29:00Z</time>
      </trkpt>
      <trkpt lat="42.89852" lon="1.31208">
        <ele>595</ele>
        <time>2021-04-12T13:29:03Z</time>
      </trkpt>
      <trkpt lat="42.8985" lon="1.31222">
        <ele>595</ele>
        <time>2021-04-12T13:29:11Z</time>
      </trkpt>
      <trkpt lat="42.89851" lon="1.31228">
        <ele>595</ele>
        <time>2021-04-12T13:29:15Z</time>
      </trkpt>
      <trkpt lat="42.89848" lon="1.31233">
        <ele>595</ele>
        <time>2021-04-12T13:29:20Z</time>
      </trkpt>
      <trkpt lat="42.89847" lon="1.31254">
        <ele>595</ele>
        <time>2021-04-12T13:29:32Z</time>
      </trkpt>
      <trkpt lat="42.89854" lon="1.31303">
        <ele>595</ele>
        <time>2021-04-12T13:30:03Z</time>
      </trkpt>
      <trkpt lat="42.89859" lon="1.31322">
        <ele>595</ele>
        <time>2021-04-12T13:30:15Z</time>
      </trkpt>
      <trkpt lat="42.89862" lon="1.31357">
        <ele>596</ele>
        <time>2021-04-12T13:30:32Z</time>
      </trkpt>
      <trkpt lat="42.89862" lon="1.31383">
        <ele>596</ele>
        <time>2021-04-12T13:30:45Z</time>
      </trkpt>
      <trkpt lat="42.89867" lon="1.31411">
        <ele>596</ele>
        <time>2021-04-12T13:31:03Z</time>
      </trkpt>
      <trkpt lat="42.89865" lon="1.31417">
        <ele>596</ele>
        <time>2021-04-12T13:31:07Z</time>
      </trkpt>
      <trkpt lat="42.89866" lon="1.31425">
        <ele>596</ele>
        <time>2021-04-12T13:31:12Z</time>
      </trkpt>
      <trkpt lat="42.8987" lon="1.31438">
        <ele>596</ele>
        <time>2021-04-12T13:31:19Z</time>
      </trkpt>
      <trkpt lat="42.89868" lon="1.31444">
        <ele>597</ele>
        <time>2021-04-12T13:31:24Z</time>
      </trkpt>
    </trkseg>
  </trk>
</gpx>